Observation data for Tahoka on 04/08/2021      Previous  Date  Next       Current Mesonet Observations  Soil Data  Daily Summary Page  Observations in Plain Language
KTAS 080500Z 14006KT 14/M06 A299 RMK A01 T01411061  RH  024%=      5-min Rain = 0
KTAS 080501Z 14005KT 14/M06 A299 RMK A01 T01401061  RH  024%=      5-min Rain = 0
KTAS 080502Z 14005KT 14/M06 A299 RMK A01 T01401061  RH  024%=      5-min Rain = 0
KTAS 080503Z 14005KT 14/M06 A299 RMK A01 T01401061  RH  024%=      5-min Rain = 0
KTAS 080504Z 14005KT 14/M06 A299 RMK A01 T01391062  RH  024%=      5-min Rain = 0
KTAS 080505Z 14006KT 14/M06 A299 RMK A01 T01381062  RH  024%=      5-min Rain = 0
KTAS 080506Z 14006KT 14/M06 A299 RMK A01 T01371062  RH  025%=      5-min Rain = 0
KTAS 080507Z 14006KT 14/M06 A299 RMK A01 T01371063  RH  025%=      5-min Rain = 0
KTAS 080508Z 14005KT 14/M06 A299 RMK A01 T01361063  RH  025%=      5-min Rain = 0
KTAS 080509Z 14004KT 13/M06 A299 RMK A01 T01341063  RH  025%=      5-min Rain = 0
KTAS 080510Z 14004KT 13/M06 A299 RMK A01 T01331063  RH  025%=      5-min Rain = 0
KTAS 080511Z 13005KT 13/M06 A299 RMK A01 T01311063  RH  025%=      5-min Rain = 0
KTAS 080512Z 13005KT 13/M06 A299 RMK A01 T01301063  RH  025%=      5-min Rain = 0
KTAS 080513Z 13006KT 13/M06 A299 RMK A01 T01291064  RH  025%=      5-min Rain = 0
KTAS 080514Z 13006KT 13/M06 A299 RMK A01 T01291064  RH  026%=      5-min Rain = 0
KTAS 080515Z 13006KT 13/M06 A299 RMK A01 T01291064  RH  026%=      5-min Rain = 0
KTAS 080516Z 13005KT 13/M06 A299 RMK A01 T01281064  RH  026%=      5-min Rain = 0
KTAS 080517Z 13004KT 13/M06 A299 RMK A01 T01271064  RH  026%=      5-min Rain = 0
KTAS 080518Z 14004KT 13/M06 A299 RMK A01 T01261064  RH  026%=      5-min Rain = 0
KTAS 080519Z 14004KT 13/M06 A299 RMK A01 T01251064  RH  026%=      5-min Rain = 0
KTAS 080520Z 14004KT 12/M06 A299 RMK A01 T01231064  RH  027%=      5-min Rain = 0
KTAS 080521Z 14005KT 12/M06 A299 RMK A01 T01221063  RH  027%=      5-min Rain = 0
KTAS 080522Z 14005KT 12/M06 A299 RMK A01 T01211063  RH  027%=      5-min Rain = 0
KTAS 080523Z 14005KT 12/M06 A299 RMK A01 T01211062  RH  027%=      5-min Rain = 0
KTAS 080524Z 13008KT 12/M06 A299 RMK A01 T01221061  RH  027%=      5-min Rain = 0
KTAS 080525Z 13009KT 12/M06 A299 RMK A01 T01231061  RH  027%=      5-min Rain = 0
KTAS 080526Z 13010KT 12/M06 A299 RMK A01 T01241061  RH  027%=      5-min Rain = 0
KTAS 080527Z 13009KT 12/M06 A299 RMK A01 T01241061  RH  027%=      5-min Rain = 0
KTAS 080528Z 13010KT 12/M06 A299 RMK A01 T01221062  RH  027%=      5-min Rain = 0
KTAS 080529Z 13009KT 12/M06 A299 RMK A01 T01211062  RH  027%=      5-min Rain = 0
KTAS 080530Z 13009KT 12/M06 A299 RMK A01 T01211062  RH  027%=      5-min Rain = 0
KTAS 080531Z 13008KT 12/M06 A299 RMK A01 T01211062  RH  027%=      5-min Rain = 0
KTAS 080532Z 13007KT 12/M06 A299 RMK A01 T01221062  RH  027%=      5-min Rain = 0
KTAS 080533Z 13008KT 12/M06 A299 RMK A01 T01241061  RH  027%=      5-min Rain = 0
KTAS 080534Z 13008KT 13/M06 A299 RMK A01 T01251062  RH  027%=      5-min Rain = 0
KTAS 080535Z 12006KT 13/M06 A2991 RMK A01 T01251062  RH  026%=      5-min Rain = 0
KTAS 080536Z 12005KT 13/M06 A2991 RMK A01 T01251062  RH  026%=      5-min Rain = 0
KTAS 080537Z 12003KT 13/M06 A2991 RMK A01 T01261063  RH  026%=      5-min Rain = 0
KTAS 080538Z 30004KT 12/M06 A2991 RMK A01 T01221062  RH  027%=      5-min Rain = 0
KTAS 080539Z 29005KT 11/M06 A2991 RMK A01 T01131058  RH  030%=      5-min Rain = 0
KTAS 080540Z 29006KT 11/M06 A2991 RMK A01 T01061056  RH  031%=      5-min Rain = 0
KTAS 080541Z 29005KT 11/M05 A2991 RMK A01 T01051054  RH  032%=      5-min Rain = 0
KTAS 080542Z 27004KT 11/M05 A2991 RMK A01 T01111054  RH  031%=      5-min Rain = 0
KTAS 080543Z 24002KT 11/M06 A2991 RMK A01 T01121056  RH  030%=      5-min Rain = 0
KTAS 080544Z 27002KT 11/M06 A2991 RMK A01 T01121057  RH  030%=      5-min Rain = 0
KTAS 080545Z 23001KT 11/M06 A2991 RMK A01 T01111056  RH  031%=      5-min Rain = 0
KTAS 080546Z 21000KT 11/M05 A2991 RMK A01 T01121054  RH  031%=      5-min Rain = 0
KTAS 080547Z 20000KT 12/M05 A2991 RMK A01 T01161053  RH  030%=      5-min Rain = 0
KTAS 080548Z 15002KT 12/M05 A299 RMK A01 T01201052  RH  030%=      5-min Rain = 0
KTAS 080549Z 14003KT 12/M05 A299 RMK A01 T01211052  RH  029%=      5-min Rain = 0
KTAS 080550Z 12005KT 12/M05 A299 RMK A01 T01241052  RH  029%=      5-min Rain = 0
KTAS 080551Z 11006KT 13/M06 A299 RMK A01 T01261055  RH  028%=      5-min Rain = 0
KTAS 080552Z 11007KT 12/M06 A299 RMK A01 T01201059  RH  028%=      5-min Rain = 0
KTAS 080553Z 11007KT 11/M06 A299 RMK A01 T01141060  RH  029%=      5-min Rain = 0
KTAS 080554Z 11007KT 11/M06 A299 RMK A01 T01131059  RH  029%=      5-min Rain = 0
KTAS 080555Z 11006KT 11/M06 A299 RMK A01 T01131060  RH  029%=      5-min Rain = 0
KTAS 080556Z 11006KT 12/M06 A299 RMK A01 T01151059  RH  029%=      5-min Rain = 0
KTAS 080557Z 11005KT 12/M06 A299 RMK A01 T01191060  RH  028%=      5-min Rain = 0
KTAS 080558Z 33002KT 12/M06 A299 RMK A01 T01201061  RH  028%=      5-min Rain = 0
KTAS 080559Z 29004KT 11/M06 A2991 RMK A01 T01131064  RH  028%=      5-min Rain = 0
KTAS 080600Z 29005KT 10/M06 A2991 RMK A01 T01031063  RH  031%=      5-min Rain = 0
KTAS 080601Z 29006KT 10/M06 A2991 RMK A01 T00981058  RH  033%=      5-min Rain = 0
KTAS 080602Z 29005KT 10/M05 A2991 RMK A01 T00951053  RH  035%=      5-min Rain = 0
KTAS 080603Z 29004KT 10/M05 A2991 RMK A01 T00961050  RH  035%=      5-min Rain = 0
KTAS 080604Z 29002KT 10/M05 A2991 RMK A01 T01021047  RH  035%=      5-min Rain = 0
KTAS 080605Z 29002KT 12/M05 A2991 RMK A01 T01161049  RH  031%=      5-min Rain = 0
KTAS 080606Z 27002KT 12/M05 A2991 RMK A01 T01161051  RH  031%=      5-min Rain = 0
KTAS 080607Z 25002KT 11/M05 A2991 RMK A01 T01141051  RH  031%=      5-min Rain = 0
KTAS 080608Z 22003KT 11/M05 A2991 RMK A01 T01091052  RH  032%=      5-min Rain = 0
KTAS 080609Z 20003KT 11/M05 A2991 RMK A01 T01061050  RH  033%=      5-min Rain = 0
KTAS 080610Z 17003KT 11/M05 A2991 RMK A01 T01051049  RH  034%=      5-min Rain = 0
KTAS 080611Z 14003KT 11/M05 A2991 RMK A01 T01061048  RH  034%=      5-min Rain = 0
KTAS 080612Z 13003KT 11/M05 A2991 RMK A01 T01091051  RH  032%=      5-min Rain = 0
KTAS 080613Z 13004KT 11/M05 A2991 RMK A01 T01131053  RH  031%=      5-min Rain = 0
KTAS 080614Z 12006KT 12/M06 A299 RMK A01 T01201056  RH  029%=      5-min Rain = 0
KTAS 080615Z 11006KT 12/M06 A299 RMK A01 T01221057  RH  028%=      5-min Rain = 0
KTAS 080616Z 11007KT 12/M06 A299 RMK A01 T01201059  RH  028%=      5-min Rain = 0
KTAS 080617Z 11007KT 12/M06 A299 RMK A01 T01221060  RH  027%=      5-min Rain = 0
KTAS 080618Z 11007KT 12/M06 A299 RMK A01 T01221060  RH  027%=      5-min Rain = 0
KTAS 080619Z 11006KT 12/M06 A299 RMK A01 T01191061  RH  028%=      5-min Rain = 0
KTAS 080620Z 12007KT 12/M06 A299 RMK A01 T01191061  RH  028%=      5-min Rain = 0
KTAS 080621Z 12007KT 12/M06 A299 RMK A01 T01181061  RH  028%=      5-min Rain = 0
KTAS 080622Z 13006KT 12/M06 A299 RMK A01 T01201061  RH  028%=      5-min Rain = 0
KTAS 080623Z 13002KT 12/M06 A299 RMK A01 T01201061  RH  028%=      5-min Rain = 0
KTAS 080624Z 11000KT 12/M06 A299 RMK A01 T01191062  RH  028%=      5-min Rain = 0
KTAS 080625Z 11000KT 12/M06 A299 RMK A01 T01201061  RH  028%=      5-min Rain = 0
KTAS 080626Z 29002KT 12/M06 A299 RMK A01 T01181064  RH  028%=      5-min Rain = 0
KTAS 080627Z 28005KT 11/M06 A2991 RMK A01 T01101063  RH  029%=      5-min Rain = 0
KTAS 080628Z 27003KT 10/M06 A2991 RMK A01 T01021055  RH  033%=      5-min Rain = 0
KTAS 080629Z 30004KT 10/M05 A2991 RMK A01 T00971051  RH  035%=      5-min Rain = 0
KTAS 080630Z 34007KT 09/M05 A2991 RMK A01 T00901054  RH  036%=      5-min Rain = 0
KTAS 080631Z 36006KT 09/M05 A2991 RMK A01 T00911054  RH  036%=      5-min Rain = 0
KTAS 080632Z 01005KT 10/M06 A2991 RMK A01 T00981056  RH  033%=      5-min Rain = 0
KTAS 080633Z 01005KT 10/M06 A2991 RMK A01 T01041058  RH  032%=      5-min Rain = 0
KTAS 080634Z 03005KT 11/M06 A2991 RMK A01 T01071059  RH  031%=      5-min Rain = 0
KTAS 080635Z 03004KT 11/M06 A2991 RMK A01 T01091060  RH  030%=      5-min Rain = 0
KTAS 080636Z 04003KT 11/M06 A2991 RMK A01 T01111062  RH  029%=      5-min Rain = 0
KTAS 080637Z 06004KT 11/M06 A2991 RMK A01 T01121062  RH  029%=      5-min Rain = 0
KTAS 080638Z 08004KT 12/M06 A2991 RMK A01 T01151061  RH  029%=      5-min Rain = 0
KTAS 080639Z 10004KT 12/M06 A299 RMK A01 T01191061  RH  028%=      5-min Rain = 0
KTAS 080640Z 10004KT 12/M06 A299 RMK A01 T01221062  RH  027%=      5-min Rain = 0
KTAS 080641Z 11004KT 12/M06 A299 RMK A01 T01231063  RH  027%=      5-min Rain = 0
KTAS 080642Z 11004KT 12/M06 A299 RMK A01 T01231063  RH  027%=      5-min Rain = 0
KTAS 080643Z 10005KT 12/M06 A299 RMK A01 T01201064  RH  027%=      5-min Rain = 0
KTAS 080644Z 09006KT 12/M06 A299 RMK A01 T01181063  RH  028%=      5-min Rain = 0
KTAS 080645Z 09007KT 12/M06 A299 RMK A01 T01151063  RH  028%=      5-min Rain = 0
KTAS 080646Z 10007KT 11/M06 A299 RMK A01 T01141062  RH  028%=      5-min Rain = 0
KTAS 080647Z 10008KT 11/M06 A299 RMK A01 T01141061  RH  029%=      5-min Rain = 0
KTAS 080648Z 10008KT 11/M06 A299 RMK A01 T01121061  RH  029%=      5-min Rain = 0
KTAS 080649Z 10007KT 11/M06 A299 RMK A01 T01101061  RH  029%=      5-min Rain = 0
KTAS 080650Z 10007KT 11/M06 A299 RMK A01 T01091061  RH  030%=      5-min Rain = 0
KTAS 080651Z 10007KT 11/M06 A299 RMK A01 T01081061  RH  030%=      5-min Rain = 0
KTAS 080652Z 10008KT 11/M06 A299 RMK A01 T01091061  RH  030%=      5-min Rain = 0
KTAS 080653Z 11007KT 11/M06 A299 RMK A01 T01091061  RH  030%=      5-min Rain = 0
KTAS 080654Z 11007KT 11/M06 A299 RMK A01 T01081062  RH  030%=      5-min Rain = 0
KTAS 080655Z 10007KT 11/M06 A299 RMK A01 T01071062  RH  030%=      5-min Rain = 0
KTAS 080656Z 10007KT 11/M06 A299 RMK A01 T01051063  RH  030%=      5-min Rain = 0
KTAS 080657Z 10009KT 10/M06 A299 RMK A01 T01031063  RH  031%=      5-min Rain = 0
KTAS 080658Z 10008KT 10/M06 A299 RMK A01 T01021063  RH  031%=      5-min Rain = 0
KTAS 080659Z 09007KT 10/M06 A299 RMK A01 T01021063  RH  031%=      5-min Rain = 0
KTAS 080700Z 10008KT 10/M06 A299 RMK A01 T01011062  RH  031%=      5-min Rain = 0
KTAS 080701Z 09007KT 10/M06 A299 RMK A01 T01011062  RH  031%=      5-min Rain = 0
KTAS 080702Z 09007KT 10/M06 A299 RMK A01 T00991063  RH  031%=      5-min Rain = 0
KTAS 080703Z 09008KT 10/M06 A299 RMK A01 T00961064  RH  032%=      5-min Rain = 0
KTAS 080704Z 09007KT 10/M06 A299 RMK A01 T00961063  RH  032%=      5-min Rain = 0
KTAS 080705Z 09006KT 10/M06 A299 RMK A01 T00951063  RH  032%=      5-min Rain = 0
KTAS 080706Z 09006KT 09/M06 A299 RMK A01 T00941064  RH  032%=      5-min Rain = 0
KTAS 080707Z 09006KT 09/M07 A299 RMK A01 T00921065  RH  032%=      5-min Rain = 0
KTAS 080708Z 09006KT 09/M07 A299 RMK A01 T00911065  RH  033%=      5-min Rain = 0
KTAS 080709Z 09006KT 09/M07 A299 RMK A01 T00901065  RH  033%=      5-min Rain = 0
KTAS 080710Z 08006KT 09/M07 A299 RMK A01 T00891065  RH  033%=      5-min Rain = 0
KTAS 080711Z 07006KT 09/M07 A299 RMK A01 T00881065  RH  033%=      5-min Rain = 0
KTAS 080712Z 07007KT 09/M07 A299 RMK A01 T00881065  RH  033%=      5-min Rain = 0
KTAS 080713Z 07007KT 09/M06 A299 RMK A01 T00881064  RH  033%=      5-min Rain = 0
KTAS 080714Z 07007KT 09/M06 A299 RMK A01 T00891063  RH  033%=      5-min Rain = 0
KTAS 080715Z 08006KT 09/M06 A299 RMK A01 T00891063  RH  033%=      5-min Rain = 0
KTAS 080716Z 07006KT 09/M06 A2991 RMK A01 T00901062  RH  033%=      5-min Rain = 0
KTAS 080717Z 07007KT 09/M06 A2991 RMK A01 T00901063  RH  033%=      5-min Rain = 0
KTAS 080718Z 06006KT 09/M06 A2991 RMK A01 T00911062  RH  033%=      5-min Rain = 0
KTAS 080719Z 06006KT 09/M06 A2991 RMK A01 T00911062  RH  033%=      5-min Rain = 0
KTAS 080720Z 07007KT 09/M06 A2991 RMK A01 T00911062  RH  033%=      5-min Rain = 0
KTAS 080721Z 07007KT 09/M06 A2991 RMK A01 T00921062  RH  033%=      5-min Rain = 0
KTAS 080722Z 07008KT 09/M06 A2991 RMK A01 T00921061  RH  033%=      5-min Rain = 0
KTAS 080723Z 07008KT 09/M06 A2991 RMK A01 T00931060  RH  033%=      5-min Rain = 0
KTAS 080724Z 07008KT 10/M06 A2991 RMK A01 T00951060  RH  033%=      5-min Rain = 0
KTAS 080725Z 07008KT 10/M06 A2991 RMK A01 T00971060  RH  033%=      5-min Rain = 0
KTAS 080726Z 08008KT 10/M06 A2991 RMK A01 T00981060  RH  032%=      5-min Rain = 0
KTAS 080727Z 07008KT 10/M06 A2991 RMK A01 T00971061  RH  032%=      5-min Rain = 0
KTAS 080728Z 08008KT 09/M06 A299 RMK A01 T00941062  RH  033%=      5-min Rain = 0
KTAS 080729Z 08009KT 09/M06 A299 RMK A01 T00911062  RH  033%=      5-min Rain = 0
KTAS 080730Z 08009KT 09/M06 A299 RMK A01 T00891061  RH  034%=      5-min Rain = 0
KTAS 080731Z 08008KT 09/M06 A299 RMK A01 T00881061  RH  034%=      5-min Rain = 0
KTAS 080732Z 07009KT 09/M06 A299 RMK A01 T00871060  RH  035%=      5-min Rain = 0
KTAS 080733Z 07009KT 09/M06 A299 RMK A01 T00861059  RH  035%=      5-min Rain = 0
KTAS 080734Z 07009KT 09/M06 A299 RMK A01 T00861058  RH  035%=      5-min Rain = 0
KTAS 080735Z 07008KT 09/M06 A299 RMK A01 T00871058  RH  035%=      5-min Rain = 0
KTAS 080736Z 07008KT 09/M06 A299 RMK A01 T00871058  RH  035%=      5-min Rain = 0
KTAS 080737Z 07008KT 09/M06 A299 RMK A01 T00871057  RH  035%=      5-min Rain = 0
KTAS 080738Z 07008KT 09/M06 A299 RMK A01 T00881057  RH  035%=      5-min Rain = 0
KTAS 080739Z 07007KT 09/M06 A2991 RMK A01 T00881057  RH  035%=      5-min Rain = 0
KTAS 080740Z 07007KT 09/M06 A2991 RMK A01 T00891056  RH  035%=      5-min Rain = 0
KTAS 080741Z 08007KT 09/M06 A2991 RMK A01 T00901056  RH  035%=      5-min Rain = 0
KTAS 080742Z 08007KT 09/M06 A2991 RMK A01 T00911055  RH  035%=      5-min Rain = 0
KTAS 080743Z 08007KT 09/M06 A2991 RMK A01 T00931055  RH  035%=      5-min Rain = 0
KTAS 080744Z 08007KT 09/M06 A2991 RMK A01 T00941055  RH  034%=      5-min Rain = 0
KTAS 080745Z 07006KT 10/M06 A2991 RMK A01 T00951055  RH  034%=      5-min Rain = 0
KTAS 080746Z 07006KT 10/M06 A2991 RMK A01 T00961056  RH  034%=      5-min Rain = 0
KTAS 080747Z 07006KT 10/M06 A2991 RMK A01 T00981055  RH  034%=      5-min Rain = 0
KTAS 080748Z 05005KT 10/M06 A2991 RMK A01 T00991056  RH  033%=      5-min Rain = 0
KTAS 080749Z 03003KT 10/M06 A2991 RMK A01 T00991056  RH  033%=      5-min Rain = 0
KTAS 080750Z 00001KT 10/M06 A2991 RMK A01 T00991057  RH  033%=      5-min Rain = 0
KTAS 080751Z 02001KT 10/M06 A2992 RMK A01 T00961058  RH  033%=      5-min Rain = 0
KTAS 080752Z 02001KT 10/M06 A2992 RMK A01 T00951056  RH  034%=      5-min Rain = 0
KTAS 080753Z 00002KT 10/M06 A2991 RMK A01 T00951056  RH  034%=      5-min Rain = 0
KTAS 080754Z 02002KT 10/M06 A2991 RMK A01 T00951056  RH  034%=      5-min Rain = 0
KTAS 080755Z 04002KT 10/M06 A2992 RMK A01 T00961055  RH  034%=      5-min Rain = 0
KTAS 080756Z 04003KT 10/M06 A2992 RMK A01 T00971055  RH  034%=      5-min Rain = 0
KTAS 080757Z 05003KT 10/M06 A2992 RMK A01 T00971056  RH  033%=      5-min Rain = 0
KTAS 080758Z 06004KT 10/M06 A2992 RMK A01 T00971055  RH  034%=      5-min Rain = 0
KTAS 080759Z 06004KT 10/M06 A2992 RMK A01 T00971055  RH  034%=      5-min Rain = 0
KTAS 080800Z 06004KT 10/M06 A2992 RMK A01 T00981055  RH  034%=      5-min Rain = 0
KTAS 080801Z 06005KT 10/M05 A2992 RMK A01 T00991054  RH  033%=      5-min Rain = 0
KTAS 080802Z 06005KT 10/M05 A2992 RMK A01 T01001054  RH  033%=      5-min Rain = 0
KTAS 080803Z 07006KT 10/M05 A2992 RMK A01 T01001054  RH  033%=      5-min Rain = 0
KTAS 080804Z 07007KT 10/M06 A2992 RMK A01 T01001055  RH  033%=      5-min Rain = 0
KTAS 080805Z 07007KT 10/M06 A2992 RMK A01 T00991055  RH  033%=      5-min Rain = 0
KTAS 080806Z 07007KT 10/M06 A2991 RMK A01 T00981055  RH  034%=      5-min Rain = 0
KTAS 080807Z 07008KT 10/M06 A2991 RMK A01 T00951055  RH  034%=      5-min Rain = 0
KTAS 080808Z 07009KT 09/M05 A2991 RMK A01 T00931054  RH  035%=      5-min Rain = 0
KTAS 080809Z 08010KT 09/M05 A2991 RMK A01 T00921054  RH  035%=      5-min Rain = 0
KTAS 080810Z 08012KT 09/M05 A2991 RMK A01 T00921053  RH  035%=      5-min Rain = 0
KTAS 080811Z 08012KT 09/M05 A2991 RMK A01 T00931053  RH  035%=      5-min Rain = 0
KTAS 080812Z 08011KT 09/M05 A2991 RMK A01 T00921053  RH  035%=      5-min Rain = 0
KTAS 080813Z 08011KT 09/M05 A2991 RMK A01 T00921052  RH  036%=      5-min Rain = 0
KTAS 080814Z 08010KT 09/M05 A2991 RMK A01 T00941050  RH  036%=      5-min Rain = 0
KTAS 080815Z 08010KT 10/M05 A2991 RMK A01 T00961050  RH  035%=      5-min Rain = 0
KTAS 080816Z 07009KT 10/M05 A2991 RMK A01 T00981049  RH  035%=      5-min Rain = 0
KTAS 080817Z 06008KT 10/M05 A2991 RMK A01 T00991049  RH  035%=      5-min Rain = 0
KTAS 080818Z 02007KT 10/M05 A2992 RMK A01 T00991050  RH  035%=      5-min Rain = 0
KTAS 080819Z 33009KT 10/M05 A2992 RMK A01 T00971051  RH  035%=      5-min Rain = 0
KTAS 080820Z 32010KT 09/M05 A2992 RMK A01 T00891054  RH  036%=      5-min Rain = 0
KTAS 080821Z 31011KT 08/M05 A2991 RMK A01 T00831053  RH  038%=      5-min Rain = 0
KTAS 080822Z 30011KT 08/M05 A2991 RMK A01 T00841050  RH  039%=      5-min Rain = 0
KTAS 080823Z 30005KT 10/M04 A2992 RMK A01 T00951041  RH  038%=      5-min Rain = 0
KTAS 080824Z 31007KT 11/M04 A2992 RMK A01 T01101039  RH  035%=      5-min Rain = 0
KTAS 080825Z 36009KT 12/M04 A2992 RMK A01 T01181042  RH  032%=      5-min Rain = 0
KTAS 080826Z 03009KT 12/M04 A2992 RMK A01 T01191044  RH  032%=      5-min Rain = 0
KTAS 080827Z 06009KT 12/M04 A2992 RMK A01 T01201043  RH  032%=      5-min Rain = 0
KTAS 080828Z 06013KT 12/M04 A2991 RMK A01 T01241041  RH  031%=      5-min Rain = 0
KTAS 080829Z 07013KT 13/M04 A2991 RMK A01 T01281041  RH  031%=      5-min Rain = 0
KTAS 080830Z 07015KT 13/M04 A2991 RMK A01 T01261042  RH  031%=      5-min Rain = 0
KTAS 080831Z 07016KT 12/M04 A299 RMK A01 T01231042  RH  031%=      5-min Rain = 0
KTAS 080832Z 08016KT 12/M04 A299 RMK A01 T01221042  RH  032%=      5-min Rain = 0
KTAS 080833Z 08015KT 12/M04 A299 RMK A01 T01221041  RH  032%=      5-min Rain = 0
KTAS 080834Z 08016KT 12/M04 A299 RMK A01 T01241039  RH  032%=      5-min Rain = 0
KTAS 080835Z 09014KT 13/M04 A299 RMK A01 T01281038  RH  031%=      5-min Rain = 0
KTAS 080836Z 10014KT 13/M04 A299 RMK A01 T01301039  RH  031%=      5-min Rain = 0
KTAS 080837Z 09015KT 13/M04 A299 RMK A01 T01311039  RH  031%=      5-min Rain = 0
KTAS 080838Z 09016KT 13/M04 A2989 RMK A01 T01321039  RH  030%=      5-min Rain = 0
KTAS 080839Z 09013KT 13/M04 A299 RMK A01 T01331040  RH  030%=      5-min Rain = 0
KTAS 080840Z 08013KT 13/M04 A299 RMK A01 T01301041  RH  030%=      5-min Rain = 0
KTAS 080841Z 08010KT 13/M04 A299 RMK A01 T01271041  RH  031%=      5-min Rain = 0
KTAS 080842Z 06004KT 13/M04 A2991 RMK A01 T01251041  RH  031%=      5-min Rain = 0
KTAS 080843Z 30007KT 12/M04 A2992 RMK A01 T01231042  RH  031%=      5-min Rain = 0
KTAS 080844Z 31008KT 12/M04 A2992 RMK A01 T01211041  RH  032%=      5-min Rain = 0
KTAS 080845Z 32008KT 12/M04 A2992 RMK A01 T01181042  RH  033%=      5-min Rain = 0
KTAS 080846Z 31011KT 12/M04 A2992 RMK A01 T01151041  RH  033%=      5-min Rain = 0
KTAS 080847Z 31011KT 12/M04 A2992 RMK A01 T01151040  RH  033%=      5-min Rain = 0
KTAS 080848Z 33009G14KT 12/M04 A2992 RMK A01 T01191038  RH  033%=      5-min Rain = 0
KTAS 080849Z 03007KT 12/M04 A2992 RMK A01 T01231038  RH  032%=      5-min Rain = 0
KTAS 080850Z 06008G13KT 13/M04 A2991 RMK A01 T01261039  RH  032%=      5-min Rain = 0
KTAS 080851Z 08009KT 13/M04 A2991 RMK A01 T01271039  RH  031%=      5-min Rain = 0
KTAS 080852Z 09009KT 13/M04 A2991 RMK A01 T01271040  RH  031%=      5-min Rain = 0
KTAS 080853Z 06009KT 12/M04 A299 RMK A01 T01241040  RH  032%=      5-min Rain = 0
KTAS 080854Z 06010KT 12/M04 A299 RMK A01 T01221040  RH  032%=      5-min Rain = 0
KTAS 080855Z 07012KT 12/M04 A299 RMK A01 T01221039  RH  032%=      5-min Rain = 0
KTAS 080856Z 07011KT 12/M04 A299 RMK A01 T01211039  RH  032%=      5-min Rain = 0
KTAS 080857Z 07011KT 12/M04 A299 RMK A01 T01211039  RH  032%=      5-min Rain = 0
KTAS 080858Z 07011KT 12/M04 A299 RMK A01 T01181040  RH  033%=      5-min Rain = 0
KTAS 080859Z 07011KT 12/M04 A299 RMK A01 T01161039  RH  033%=      5-min Rain = 0
KTAS 080900Z 07010KT 12/M04 A299 RMK A01 T01151039  RH  034%=      5-min Rain = 0
KTAS 080901Z 07010KT 11/M04 A299 RMK A01 T01121040  RH  034%=      5-min Rain = 0
KTAS 080902Z 07010KT 11/M04 A299 RMK A01 T01101040  RH  035%=      5-min Rain = 0
KTAS 080903Z 07010KT 11/M04 A2989 RMK A01 T01081040  RH  035%=      5-min Rain = 0
KTAS 080904Z 07011KT 11/M04 A2989 RMK A01 T01061040  RH  035%=      5-min Rain = 0
KTAS 080905Z 07011KT 11/M04 A299 RMK A01 T01061039  RH  036%=      5-min Rain = 0
KTAS 080906Z 07011KT 11/M04 A299 RMK A01 T01081038  RH  036%=      5-min Rain = 0
KTAS 080907Z 07009KT 11/M04 A299 RMK A01 T01081039  RH  035%=      5-min Rain = 0
KTAS 080908Z 07007KT 11/M04 A299 RMK A01 T01071040  RH  036%=      5-min Rain = 0
KTAS 080909Z 07007KT 11/M04 A299 RMK A01 T01051040  RH  036%=      5-min Rain = 0
KTAS 080910Z 07008KT 10/M04 A299 RMK A01 T01041041  RH  036%=      5-min Rain = 0
KTAS 080911Z 07008KT 10/M04 A299 RMK A01 T01011041  RH  037%=      5-min Rain = 0
KTAS 080912Z 07007KT 10/M04 A299 RMK A01 T01001041  RH  037%=      5-min Rain = 0
KTAS 080913Z 07007KT 10/M04 A299 RMK A01 T00981041  RH  037%=      5-min Rain = 0
KTAS 080914Z 07008KT 10/M04 A299 RMK A01 T00981041  RH  038%=      5-min Rain = 0
KTAS 080915Z 06007KT 10/M04 A299 RMK A01 T00971041  RH  038%=      5-min Rain = 0
KTAS 080916Z 07007KT 10/M04 A299 RMK A01 T00961041  RH  038%=      5-min Rain = 0
KTAS 080917Z 07006KT 10/M04 A299 RMK A01 T00961040  RH  038%=      5-min Rain = 0
KTAS 080918Z 07006KT 10/M04 A299 RMK A01 T00961040  RH  038%=      5-min Rain = 0
KTAS 080919Z 08005KT 10/M04 A299 RMK A01 T00951041  RH  038%=      5-min Rain = 0
KTAS 080920Z 08005KT 09/M04 A299 RMK A01 T00931042  RH  038%=      5-min Rain = 0
KTAS 080921Z 08005KT 09/M04 A299 RMK A01 T00921042  RH  039%=      5-min Rain = 0
KTAS 080922Z 08005KT 09/M04 A2989 RMK A01 T00921041  RH  039%=      5-min Rain = 0
KTAS 080923Z 08004KT 09/M04 A2989 RMK A01 T00911041  RH  039%=      5-min Rain = 0
KTAS 080924Z 08004KT 09/M04 A2989 RMK A01 T00921040  RH  039%=      5-min Rain = 0
KTAS 080925Z 08004KT 09/M04 A2989 RMK A01 T00931040  RH  039%=      5-min Rain = 0
KTAS 080926Z 07005KT 09/M04 A2989 RMK A01 T00931041  RH  039%=      5-min Rain = 0
KTAS 080927Z 07005KT 09/M04 A2989 RMK A01 T00921041  RH  039%=      5-min Rain = 0
KTAS 080928Z 07006KT 09/M04 A2989 RMK A01 T00911042  RH  039%=      5-min Rain = 0
KTAS 080929Z 08006KT 09/M04 A2989 RMK A01 T00891042  RH  039%=      5-min Rain = 0
KTAS 080930Z 07006KT 09/M04 A2989 RMK A01 T00871043  RH  040%=      5-min Rain = 0
KTAS 080931Z 07006KT 09/M04 A2989 RMK A01 T00851042  RH  040%=      5-min Rain = 0
KTAS 080932Z 07007KT 08/M04 A2989 RMK A01 T00841042  RH  041%=      5-min Rain = 0
KTAS 080933Z 07007KT 08/M04 A2989 RMK A01 T00831043  RH  041%=      5-min Rain = 0
KTAS 080934Z 08007KT 08/M04 A2989 RMK A01 T00821043  RH  041%=      5-min Rain = 0
KTAS 080935Z 08007KT 08/M04 A2989 RMK A01 T00801044  RH  041%=      5-min Rain = 0
KTAS 080936Z 08007KT 08/M04 A2989 RMK A01 T00781043  RH  042%=      5-min Rain = 0
KTAS 080937Z 08007KT 08/M04 A2989 RMK A01 T00771043  RH  042%=      5-min Rain = 0
KTAS 080938Z 08007KT 08/M04 A2989 RMK A01 T00771043  RH  043%=      5-min Rain = 0
KTAS 080939Z 08007KT 08/M04 A2989 RMK A01 T00761043  RH  043%=      5-min Rain = 0
KTAS 080940Z 08007KT 08/M04 A2989 RMK A01 T00751043  RH  043%=      5-min Rain = 0
KTAS 080941Z 08008KT 08/M04 A2989 RMK A01 T00751042  RH  043%=      5-min Rain = 0
KTAS 080942Z 08009KT 08/M04 A2989 RMK A01 T00751041  RH  044%=      5-min Rain = 0
KTAS 080943Z 07007KT 08/M04 A2989 RMK A01 T00751041  RH  044%=      5-min Rain = 0
KTAS 080944Z 07008KT 08/M04 A2989 RMK A01 T00751041  RH  044%=      5-min Rain = 0
KTAS 080945Z 07007KT 08/M04 A2989 RMK A01 T00761040  RH  044%=      5-min Rain = 0
KTAS 080946Z 06006KT 08/M04 A2989 RMK A01 T00771039  RH  044%=      5-min Rain = 0
KTAS 080947Z 06006KT 08/M04 A2989 RMK A01 T00771039  RH  043%=      5-min Rain = 0
KTAS 080948Z 06005KT 08/M04 A2989 RMK A01 T00781039  RH  043%=      5-min Rain = 0
KTAS 080949Z 06005KT 08/M04 A2989 RMK A01 T00771040  RH  043%=      5-min Rain = 0
KTAS 080950Z 06005KT 08/M04 A2989 RMK A01 T00761040  RH  043%=      5-min Rain = 0
KTAS 080951Z 07005KT 08/M04 A2989 RMK A01 T00751040  RH  044%=      5-min Rain = 0
KTAS 080952Z 08004KT 08/M04 A2989 RMK A01 T00751040  RH  044%=      5-min Rain = 0
KTAS 080953Z 08005KT 08/M04 A2989 RMK A01 T00761039  RH  044%=      5-min Rain = 0
KTAS 080954Z 08005KT 08/M04 A2989 RMK A01 T00771038  RH  044%=      5-min Rain = 0
KTAS 080955Z 08005KT 08/M04 A2989 RMK A01 T00781038  RH  044%=      5-min Rain = 0
KTAS 080956Z 07005KT 08/M04 A2989 RMK A01 T00781038  RH  043%=      5-min Rain = 0
KTAS 080957Z 08006KT 08/M04 A2989 RMK A01 T00781038  RH  044%=      5-min Rain = 0
KTAS 080958Z 08005KT 08/M04 A2989 RMK A01 T00791038  RH  043%=      5-min Rain = 0
KTAS 080959Z 08005KT 08/M04 A2989 RMK A01 T00791039  RH  043%=      5-min Rain = 0
KTAS 081000Z 08005KT 08/M04 A2989 RMK A01 T00791037  RH  044%=      5-min Rain = 0
KTAS 081001Z 08005KT 08/M04 A2989 RMK A01 T00801037  RH  044%=      5-min Rain = 0
KTAS 081002Z 07005KT 08/M04 A2989 RMK A01 T00801038  RH  043%=      5-min Rain = 0
KTAS 081003Z 07005KT 08/M04 A2989 RMK A01 T00791038  RH  043%=      5-min Rain = 0
KTAS 081004Z 06005KT 08/M04 A2989 RMK A01 T00791038  RH  043%=      5-min Rain = 0
KTAS 081005Z 07005KT 08/M04 A2989 RMK A01 T00781038  RH  044%=      5-min Rain = 0
KTAS 081006Z 07005KT 08/M04 A2989 RMK A01 T00781037  RH  044%=      5-min Rain = 0
KTAS 081007Z 07006KT 08/M04 A2989 RMK A01 T00781036  RH  044%=      5-min Rain = 0
KTAS 081008Z 07006KT 08/M04 A2989 RMK A01 T00801036  RH  044%=      5-min Rain = 0
KTAS 081009Z 07006KT 08/M04 A2989 RMK A01 T00801037  RH  044%=      5-min Rain = 0
KTAS 081010Z 07006KT 08/M04 A2989 RMK A01 T00791037  RH  044%=      5-min Rain = 0
KTAS 081011Z 08006KT 08/M04 A2989 RMK A01 T00791036  RH  044%=      5-min Rain = 0
KTAS 081012Z 08006KT 08/M04 A2989 RMK A01 T00791036  RH  044%=      5-min Rain = 0
KTAS 081013Z 08006KT 08/M04 A2988 RMK A01 T00791036  RH  044%=      5-min Rain = 0
KTAS 081014Z 08006KT 08/M04 A2988 RMK A01 T00791037  RH  044%=      5-min Rain = 0
KTAS 081015Z 08006KT 08/M04 A2988 RMK A01 T00781038  RH  044%=      5-min Rain = 0
KTAS 081016Z 07006KT 08/M04 A2989 RMK A01 T00771038  RH  044%=      5-min Rain = 0
KTAS 081017Z 07006KT 08/M04 A2989 RMK A01 T00771037  RH  044%=      5-min Rain = 0
KTAS 081018Z 08007KT 08/M04 A2988 RMK A01 T00771037  RH  044%=      5-min Rain = 0
KTAS 081019Z 08007KT 08/M04 A2988 RMK A01 T00761038  RH  044%=      5-min Rain = 0
KTAS 081020Z 08008KT 08/M04 A2988 RMK A01 T00751039  RH  044%=      5-min Rain = 0
KTAS 081021Z 08008KT 07/M04 A2988 RMK A01 T00731039  RH  045%=      5-min Rain = 0
KTAS 081022Z 08008KT 07/M04 A2988 RMK A01 T00711040  RH  045%=      5-min Rain = 0
KTAS 081023Z 08008KT 07/M04 A2988 RMK A01 T00711039  RH  046%=      5-min Rain = 0
KTAS 081024Z 09008KT 07/M04 A2988 RMK A01 T00711038  RH  046%=      5-min Rain = 0
KTAS 081025Z 08008KT 07/M04 A2988 RMK A01 T00711039  RH  046%=      5-min Rain = 0
KTAS 081026Z 09008KT 07/M04 A2988 RMK A01 T00701039  RH  046%=      5-min Rain = 0
KTAS 081027Z 09008KT 07/M04 A2988 RMK A01 T00691039  RH  046%=      5-min Rain = 0
KTAS 081028Z 09009KT 07/M04 A2988 RMK A01 T00681039  RH  046%=      5-min Rain = 0
KTAS 081029Z 10010KT 07/M04 A2988 RMK A01 T00691038  RH  046%=      5-min Rain = 0
KTAS 081030Z 10010KT 07/M04 A2988 RMK A01 T00711037  RH  046%=      5-min Rain = 0
KTAS 081031Z 09010KT 07/M04 A2988 RMK A01 T00741036  RH  046%=      5-min Rain = 0
KTAS 081032Z 09010KT 08/M04 A2988 RMK A01 T00761035  RH  045%=      5-min Rain = 0
KTAS 081033Z 09009KT 08/M04 A2988 RMK A01 T00781035  RH  045%=      5-min Rain = 0
KTAS 081034Z 08008KT 08/M04 A2988 RMK A01 T00791036  RH  044%=      5-min Rain = 0
KTAS 081035Z 08008KT 08/M04 A2988 RMK A01 T00781037  RH  044%=      5-min Rain = 0
KTAS 081036Z 08008KT 08/M04 A2988 RMK A01 T00781037  RH  044%=      5-min Rain = 0
KTAS 081037Z 09009KT 08/M04 A2988 RMK A01 T00781036  RH  044%=      5-min Rain = 0
KTAS 081038Z 10009KT 08/M04 A2988 RMK A01 T00791036  RH  044%=      5-min Rain = 0
KTAS 081039Z 10009KT 08/M03 A2988 RMK A01 T00811034  RH  044%=      5-min Rain = 0
KTAS 081040Z 10010KT 08/M03 A2987 RMK A01 T00831034  RH  044%=      5-min Rain = 0
KTAS 081041Z 11012KT 09/M03 A2987 RMK A01 T00851032  RH  043%=      5-min Rain = 0
KTAS 081042Z 11011KT 09/M03 A2987 RMK A01 T00921030  RH  042%=      5-min Rain = 0
KTAS 081043Z 11011KT 10/M03 A2987 RMK A01 T00951030  RH  041%=      5-min Rain = 0
KTAS 081044Z 11010KT 10/M03 A2987 RMK A01 T01001029  RH  040%=      5-min Rain = 0
KTAS 081045Z 11009KT 10/M03 A2987 RMK A01 T01021029  RH  040%=      5-min Rain = 0
KTAS 081046Z 10007KT 11/M03 A2987 RMK A01 T01051028  RH  039%=      5-min Rain = 0
KTAS 081047Z 10009KT 11/M03 A2987 RMK A01 T01071028  RH  039%=      5-min Rain = 0
KTAS 081048Z 10007KT 11/M03 A2987 RMK A01 T01081029  RH  038%=      5-min Rain = 0
KTAS 081049Z 09008KT 11/M03 A2987 RMK A01 T01071030  RH  038%=      5-min Rain = 0
KTAS 081050Z 09008KT 11/M03 A2988 RMK A01 T01051031  RH  038%=      5-min Rain = 0
KTAS 081051Z 07005KT 10/M03 A2988 RMK A01 T01021033  RH  039%=      5-min Rain = 0
KTAS 081052Z 06005KT 10/M03 A2988 RMK A01 T00971034  RH  039%=      5-min Rain = 0
KTAS 081053Z 05005KT 09/M04 A2988 RMK A01 T00931035  RH  040%=      5-min Rain = 0
KTAS 081054Z 04005KT 09/M04 A2988 RMK A01 T00901035  RH  041%=      5-min Rain = 0
KTAS 081055Z 04004KT 09/M04 A2988 RMK A01 T00861037  RH  042%=      5-min Rain = 0
KTAS 081056Z 03004KT 08/M04 A2988 RMK A01 T00821038  RH  043%=      5-min Rain = 0
KTAS 081057Z 03003KT 08/M04 A2988 RMK A01 T00791038  RH  043%=      5-min Rain = 0
KTAS 081058Z 05004KT 08/M04 A2988 RMK A01 T00771039  RH  044%=      5-min Rain = 0
KTAS 081059Z 06004KT 08/M04 A2988 RMK A01 T00751040  RH  044%=      5-min Rain = 0
KTAS 081100Z 07005KT 08/M04 A2988 RMK A01 T00751038  RH  044%=      5-min Rain = 0
KTAS 081101Z 08005KT 08/M04 A2988 RMK A01 T00761037  RH  045%=      5-min Rain = 0
KTAS 081102Z 09005KT 08/M04 A2988 RMK A01 T00761037  RH  045%=      5-min Rain = 0
KTAS 081103Z 09006KT 08/M04 A2988 RMK A01 T00761036  RH  045%=      5-min Rain = 0
KTAS 081104Z 08008KT 08/M04 A2988 RMK A01 T00761036  RH  045%=      5-min Rain = 0
KTAS 081105Z 09009KT 08/M03 A2988 RMK A01 T00771034  RH  045%=      5-min Rain = 0
KTAS 081106Z 09009KT 08/M03 A2988 RMK A01 T00791034  RH  045%=      5-min Rain = 0
KTAS 081107Z 09009KT 08/M03 A2988 RMK A01 T00821032  RH  044%=      5-min Rain = 0
KTAS 081108Z 09008KT 09/M03 A2988 RMK A01 T00861031  RH  044%=      5-min Rain = 0
KTAS 081109Z 09008KT 09/M03 A2988 RMK A01 T00881031  RH  043%=      5-min Rain = 0
KTAS 081110Z 08007KT 09/M03 A2988 RMK A01 T00881033  RH  042%=      5-min Rain = 0
KTAS 081111Z 09007KT 09/M04 A2988 RMK A01 T00851035  RH  043%=      5-min Rain = 0
KTAS 081112Z 09007KT 08/M03 A2988 RMK A01 T00831034  RH  043%=      5-min Rain = 0
KTAS 081113Z 10008KT 08/M03 A2988 RMK A01 T00821034  RH  044%=      5-min Rain = 0
KTAS 081114Z 09008KT 08/M03 A2988 RMK A01 T00821034  RH  044%=      5-min Rain = 0
KTAS 081115Z 10008KT 08/M03 A2988 RMK A01 T00821034  RH  044%=      5-min Rain = 0
KTAS 081116Z 10008KT 08/M03 A2988 RMK A01 T00821034  RH  044%=      5-min Rain = 0
KTAS 081117Z 10007KT 08/M03 A2988 RMK A01 T00831033  RH  044%=      5-min Rain = 0
KTAS 081118Z 09008KT 08/M03 A2988 RMK A01 T00831034  RH  044%=      5-min Rain = 0
KTAS 081119Z 09007KT 08/M03 A2988 RMK A01 T00831034  RH  044%=      5-min Rain = 0
KTAS 081120Z 09008KT 08/M03 A2988 RMK A01 T00831033  RH  044%=      5-min Rain = 0
KTAS 081121Z 08008KT 08/M03 A2988 RMK A01 T00841032  RH  044%=      5-min Rain = 0
KTAS 081122Z 08007KT 09/M03 A2988 RMK A01 T00851033  RH  043%=      5-min Rain = 0
KTAS 081123Z 09007KT 08/M03 A2988 RMK A01 T00841033  RH  044%=      5-min Rain = 0
KTAS 081124Z 09008KT 09/M03 A2988 RMK A01 T00851032  RH  044%=      5-min Rain = 0
KTAS 081125Z 08008KT 09/M03 A2988 RMK A01 T00861032  RH  043%=      5-min Rain = 0
KTAS 081126Z 08008KT 09/M03 A2988 RMK A01 T00851033  RH  043%=      5-min Rain = 0
KTAS 081127Z 07007KT 08/M03 A2988 RMK A01 T00831034  RH  044%=      5-min Rain = 0
KTAS 081128Z 07007KT 08/M03 A2988 RMK A01 T00811033  RH  044%=      5-min Rain = 0
KTAS 081129Z 07007KT 08/M03 A2988 RMK A01 T00801034  RH  044%=      5-min Rain = 0
KTAS 081130Z 07006KT 08/M03 A2988 RMK A01 T00781034  RH  045%=      5-min Rain = 0
KTAS 081131Z 06006KT 08/M04 A2988 RMK A01 T00771035  RH  045%=      5-min Rain = 0
KTAS 081132Z 06007KT 08/M04 A2988 RMK A01 T00751035  RH  046%=      5-min Rain = 0
KTAS 081133Z 06006KT 07/M04 A2988 RMK A01 T00731036  RH  046%=      5-min Rain = 0
KTAS 081134Z 07007KT 07/M04 A2988 RMK A01 T00721036  RH  046%=      5-min Rain = 0
KTAS 081135Z 07008KT 07/M04 A2988 RMK A01 T00711036  RH  046%=      5-min Rain = 0
KTAS 081136Z 07009KT 07/M04 A2988 RMK A01 T00701036  RH  047%=      5-min Rain = 0
KTAS 081137Z 07008KT 07/M04 A2988 RMK A01 T00691037  RH  047%=      5-min Rain = 0
KTAS 081138Z 07009KT 07/M04 A2988 RMK A01 T00691037  RH  047%=      5-min Rain = 0
KTAS 081139Z 07008KT 07/M04 A2988 RMK A01 T00691036  RH  047%=      5-min Rain = 0
KTAS 081140Z 07007KT 07/M04 A2988 RMK A01 T00701036  RH  047%=      5-min Rain = 0
KTAS 081141Z 07007KT 07/M04 A2988 RMK A01 T00691037  RH  047%=      5-min Rain = 0
KTAS 081142Z 07007KT 07/M04 A2988 RMK A01 T00681037  RH  047%=      5-min Rain = 0
KTAS 081143Z 07007KT 07/M04 A2988 RMK A01 T00681036  RH  048%=      5-min Rain = 0
KTAS 081144Z 07007KT 07/M04 A2988 RMK A01 T00681036  RH  048%=      5-min Rain = 0
KTAS 081145Z 07006KT 07/M04 A2988 RMK A01 T00681036  RH  048%=      5-min Rain = 0
KTAS 081146Z 08006KT 07/M04 A2988 RMK A01 T00671037  RH  048%=      5-min Rain = 0
KTAS 081147Z 07007KT 07/M04 A2988 RMK A01 T00661036  RH  048%=      5-min Rain = 0
KTAS 081148Z 06008KT 07/M04 A2988 RMK A01 T00661035  RH  048%=      5-min Rain = 0
KTAS 081149Z 07009KT 07/M04 A2988 RMK A01 T00661035  RH  048%=      5-min Rain = 0
KTAS 081150Z 07009KT 07/M03 A2988 RMK A01 T00681033  RH  048%=      5-min Rain = 0
KTAS 081151Z 07009KT 07/M03 A2988 RMK A01 T00711032  RH  048%=      5-min Rain = 0
KTAS 081152Z 07008KT 07/M03 A2988 RMK A01 T00741031  RH  047%=      5-min Rain = 0
KTAS 081153Z 07008KT 08/M03 A2988 RMK A01 T00751032  RH  047%=      5-min Rain = 0
KTAS 081154Z 08007KT 08/M03 A2988 RMK A01 T00751033  RH  046%=      5-min Rain = 0
KTAS 081155Z 08006KT 07/M03 A2988 RMK A01 T00741034  RH  046%=      5-min Rain = 0
KTAS 081156Z 08006KT 07/M03 A2988 RMK A01 T00731033  RH  047%=      5-min Rain = 0
KTAS 081157Z 08007KT 07/M03 A2988 RMK A01 T00731034  RH  047%=      5-min Rain = 0
KTAS 081158Z 08007KT 07/M03 A2988 RMK A01 T00721034  RH  047%=      5-min Rain = 0
KTAS 081159Z 08008KT 07/M03 A2988 RMK A01 T00711034  RH  047%=      5-min Rain = 0
KTAS 081200Z 08009KT 07/M03 A2988 RMK A01 T00721034  RH  047%=      5-min Rain = 0
KTAS 081201Z 08008KT 07/M03 A2988 RMK A01 T00721034  RH  047%=      5-min Rain = 0
KTAS 081202Z 08008KT 07/M03 A2988 RMK A01 T00721034  RH  047%=      5-min Rain = 0
KTAS 081203Z 08007KT 07/M03 A2988 RMK A01 T00721034  RH  047%=      5-min Rain = 0
KTAS 081204Z 08007KT 07/M03 A2988 RMK A01 T00711034  RH  047%=      5-min Rain = 0
KTAS 081205Z 08007KT 07/M03 A2988 RMK A01 T00711034  RH  047%=      5-min Rain = 0
KTAS 081206Z 08007KT 07/M04 A2988 RMK A01 T00701035  RH  047%=      5-min Rain = 0
KTAS 081207Z 08007KT 07/M04 A2988 RMK A01 T00701035  RH  047%=      5-min Rain = 0
KTAS 081208Z 08006KT 07/M04 A2988 RMK A01 T00691035  RH  048%=      5-min Rain = 0
KTAS 081209Z 08005KT 07/M04 A2988 RMK A01 T00691035  RH  048%=      5-min Rain = 0
KTAS 081210Z 07005KT 07/M03 A2988 RMK A01 T00691034  RH  048%=      5-min Rain = 0
KTAS 081211Z 07004KT 07/M04 A2988 RMK A01 T00691035  RH  048%=      5-min Rain = 0
KTAS 081212Z 06004KT 07/M04 A2988 RMK A01 T00681035  RH  048%=      5-min Rain = 0
KTAS 081213Z 06004KT 07/M04 A2988 RMK A01 T00681035  RH  048%=      5-min Rain = 0
KTAS 081214Z 06004KT 07/M04 A2988 RMK A01 T00681035  RH  048%=      5-min Rain = 0
KTAS 081215Z 06004KT 07/M03 A2988 RMK A01 T00681034  RH  048%=      5-min Rain = 0
KTAS 081216Z 06004KT 07/M03 A2988 RMK A01 T00671034  RH  048%=      5-min Rain = 0
KTAS 081217Z 07005KT 07/M03 A2988 RMK A01 T00681033  RH  048%=      5-min Rain = 0
KTAS 081218Z 07005KT 07/M03 A2988 RMK A01 T00691032  RH  048%=      5-min Rain = 0
KTAS 081219Z 07005KT 07/M03 A2988 RMK A01 T00701032  RH  048%=      5-min Rain = 0
KTAS 081220Z 08005KT 07/M03 A2988 RMK A01 T00701033  RH  048%=      5-min Rain = 0
KTAS 081221Z 07005KT 07/M03 A2988 RMK A01 T00711033  RH  048%=      5-min Rain = 0
KTAS 081222Z 08006KT 07/M03 A2988 RMK A01 T00711033  RH  047%=      5-min Rain = 0
KTAS 081223Z 09007KT 07/M03 A2988 RMK A01 T00711033  RH  048%=      5-min Rain = 0
KTAS 081224Z 09008KT 07/M03 A2988 RMK A01 T00741030  RH  048%=      5-min Rain = 0
KTAS 081225Z 09008KT 08/M03 A2988 RMK A01 T00761031  RH  047%=      5-min Rain = 0
KTAS 081226Z 09008KT 08/M03 A2988 RMK A01 T00761031  RH  047%=      5-min Rain = 0
KTAS 081227Z 10007KT 08/M03 A2988 RMK A01 T00751030  RH  047%=      5-min Rain = 0
KTAS 081228Z 10007KT 08/M03 A2988 RMK A01 T00751030  RH  047%=      5-min Rain = 0
KTAS 081229Z 10007KT 07/M03 A2988 RMK A01 T00741031  RH  047%=      5-min Rain = 0
KTAS 081230Z 10007KT 07/M03 A2988 RMK A01 T00731032  RH  047%=      5-min Rain = 0
KTAS 081231Z 09008KT 07/M03 A2988 RMK A01 T00711032  RH  048%=      5-min Rain = 0
KTAS 081232Z 10008KT 07/M03 A2988 RMK A01 T00721030  RH  048%=      5-min Rain = 0
KTAS 081233Z 08004KT 08/M03 A2988 RMK A01 T00751027  RH  048%=      5-min Rain = 0
KTAS 081234Z 01002KT 07/M03 A2988 RMK A01 T00711034  RH  047%=      5-min Rain = 0
KTAS 081235Z 36002KT 07/M04 A2988 RMK A01 T00671036  RH  048%=      5-min Rain = 0
KTAS 081236Z 36003KT 06/M04 A2988 RMK A01 T00641036  RH  049%=      5-min Rain = 0
KTAS 081237Z 00003KT 06/M04 A2988 RMK A01 T00631035  RH  050%=      5-min Rain = 0
KTAS 081238Z 01003KT 06/M03 A2988 RMK A01 T00621033  RH  051%=      5-min Rain = 0
KTAS 081239Z 03003KT 06/M03 A2988 RMK A01 T00621032  RH  051%=      5-min Rain = 0
KTAS 081240Z 05003KT 06/M03 A2988 RMK A01 T00631031  RH  051%=      5-min Rain = 0
KTAS 081241Z 06004KT 07/M03 A2988 RMK A01 T00651029  RH  051%=      5-min Rain = 0
KTAS 081242Z 07005KT 07/M03 A2988 RMK A01 T00671030  RH  050%=      5-min Rain = 0
KTAS 081243Z 07005KT 07/M03 A2988 RMK A01 T00661032  RH  050%=      5-min Rain = 0
KTAS 081244Z 07006KT 07/M03 A2988 RMK A01 T00661030  RH  050%=      5-min Rain = 0
KTAS 081245Z 07006KT 07/M03 A2988 RMK A01 T00681028  RH  050%=      5-min Rain = 0
KTAS 081246Z 07007KT 07/M03 A2988 RMK A01 T00701027  RH  050%=      5-min Rain = 0
KTAS 081247Z 08007KT 07/M03 A2988 RMK A01 T00731027  RH  049%=      5-min Rain = 0
KTAS 081248Z 08008KT 07/M03 A2988 RMK A01 T00741027  RH  049%=      5-min Rain = 0
KTAS 081249Z 08008KT 07/M03 A2988 RMK A01 T00741027  RH  049%=      5-min Rain = 0
KTAS 081250Z 09008KT 08/M03 A2988 RMK A01 T00751027  RH  048%=      5-min Rain = 0
KTAS 081251Z 09008KT 08/M03 A2988 RMK A01 T00761026  RH  048%=      5-min Rain = 0
KTAS 081252Z 08008KT 08/M03 A2988 RMK A01 T00771026  RH  048%=      5-min Rain = 0
KTAS 081253Z 08008KT 08/M03 A2988 RMK A01 T00781025  RH  048%=      5-min Rain = 0
KTAS 081254Z 08009KT 08/M03 A2988 RMK A01 T00801025  RH  048%=      5-min Rain = 0
KTAS 081255Z 09009KT 08/M03 A2988 RMK A01 T00811025  RH  047%=      5-min Rain = 0
KTAS 081256Z 08009KT 08/M03 A2988 RMK A01 T00811025  RH  047%=      5-min Rain = 0
KTAS 081257Z 09009KT 08/M03 A2988 RMK A01 T00821025  RH  047%=      5-min Rain = 0
KTAS 081258Z 09008KT 08/M03 A2988 RMK A01 T00831025  RH  047%=      5-min Rain = 0
KTAS 081259Z 09008KT 08/M03 A2988 RMK A01 T00821025  RH  047%=      5-min Rain = 0
KTAS 081300Z 08007KT 08/M03 A2988 RMK A01 T00821025  RH  047%=      5-min Rain = 0
KTAS 081301Z 08007KT 08/M03 A2988 RMK A01 T00821025  RH  047%=      5-min Rain = 0
KTAS 081302Z 08006KT 08/M03 A2988 RMK A01 T00811025  RH  047%=      5-min Rain = 0
KTAS 081303Z 07006KT 08/M03 A2988 RMK A01 T00811025  RH  047%=      5-min Rain = 0
KTAS 081304Z 08006KT 08/M02 A2988 RMK A01 T00821024  RH  047%=      5-min Rain = 0
KTAS 081305Z 08006KT 08/M02 A2988 RMK A01 T00821024  RH  047%=      5-min Rain = 0
KTAS 081306Z 08007KT 08/M02 A2988 RMK A01 T00821024  RH  047%=      5-min Rain = 0
KTAS 081307Z 08006KT 08/M03 A2988 RMK A01 T00821025  RH  047%=      5-min Rain = 0
KTAS 081308Z 08006KT 08/M02 A2988 RMK A01 T00821024  RH  047%=      5-min Rain = 0
KTAS 081309Z 08006KT 08/M02 A2988 RMK A01 T00821024  RH  047%=      5-min Rain = 0
KTAS 081310Z 08006KT 08/M02 A2989 RMK A01 T00831024  RH  047%=      5-min Rain = 0
KTAS 081311Z 08006KT 08/M02 A2989 RMK A01 T00841023  RH  047%=      5-min Rain = 0
KTAS 081312Z 07006KT 08/M02 A2989 RMK A01 T00841024  RH  047%=      5-min Rain = 0
KTAS 081313Z 07006KT 09/M02 A2989 RMK A01 T00851023  RH  047%=      5-min Rain = 0
KTAS 081314Z 07006KT 09/M02 A2989 RMK A01 T00871022  RH  046%=      5-min Rain = 0
KTAS 081315Z 07007KT 09/M02 A2989 RMK A01 T00891021  RH  046%=      5-min Rain = 0
KTAS 081316Z 06006KT 09/M02 A2989 RMK A01 T00911020  RH  046%=      5-min Rain = 0
KTAS 081317Z 06005KT 09/M02 A2989 RMK A01 T00931020  RH  045%=      5-min Rain = 0
KTAS 081318Z 05005KT 09/M02 A299 RMK A01 T00941019  RH  045%=      5-min Rain = 0
KTAS 081319Z 05005KT 10/M02 A299 RMK A01 T00961018  RH  045%=      5-min Rain = 0
KTAS 081320Z 05006KT 10/M02 A299 RMK A01 T00981018  RH  044%=      5-min Rain = 0
KTAS 081321Z 05005KT 10/M02 A299 RMK A01 T01001019  RH  043%=      5-min Rain = 0
KTAS 081322Z 05005KT 10/M02 A299 RMK A01 T01021019  RH  043%=      5-min Rain = 0
KTAS 081323Z 05006KT 10/M02 A299 RMK A01 T01041018  RH  042%=      5-min Rain = 0
KTAS 081324Z 06006KT 11/M02 A299 RMK A01 T01051019  RH  042%=      5-min Rain = 0
KTAS 081325Z 05006KT 11/M02 A299 RMK A01 T01071018  RH  042%=      5-min Rain = 0
KTAS 081326Z 05006KT 11/M02 A299 RMK A01 T01081018  RH  042%=      5-min Rain = 0
KTAS 081327Z 04008KT 11/M02 A299 RMK A01 T01091017  RH  041%=      5-min Rain = 0
KTAS 081328Z 04007KT 11/M02 A299 RMK A01 T01101018  RH  041%=      5-min Rain = 0
KTAS 081329Z 04008KT 11/M02 A299 RMK A01 T01101018  RH  041%=      5-min Rain = 0
KTAS 081330Z 03007KT 11/M02 A299 RMK A01 T01111018  RH  041%=      5-min Rain = 0
KTAS 081331Z 03007KT 11/M02 A299 RMK A01 T01111018  RH  041%=      5-min Rain = 0
KTAS 081332Z 04008KT 11/M02 A2991 RMK A01 T01111019  RH  040%=      5-min Rain = 0
KTAS 081333Z 03008KT 11/M02 A2991 RMK A01 T01111019  RH  040%=      5-min Rain = 0
KTAS 081334Z 03008KT 11/M02 A2991 RMK A01 T01101019  RH  040%=      5-min Rain = 0
KTAS 081335Z 04008KT 11/M02 A2991 RMK A01 T01101020  RH  040%=      5-min Rain = 0
KTAS 081336Z 04007KT 11/M02 A2991 RMK A01 T01101020  RH  040%=      5-min Rain = 0
KTAS 081337Z 04007KT 11/M02 A2991 RMK A01 T01121018  RH  040%=      5-min Rain = 0
KTAS 081338Z 05007KT 11/M02 A2991 RMK A01 T01131017  RH  040%=      5-min Rain = 0
KTAS 081339Z 05007KT 11/M02 A2991 RMK A01 T01141017  RH  040%=      5-min Rain = 0
KTAS 081340Z 06006KT 12/M02 A2991 RMK A01 T01151016  RH  040%=      5-min Rain = 0
KTAS 081341Z 05006KT 12/M02 A2991 RMK A01 T01161016  RH  040%=      5-min Rain = 0
KTAS 081342Z 05007KT 12/M02 A2991 RMK A01 T01161016  RH  040%=      5-min Rain = 0
KTAS 081343Z 05007KT 12/M02 A2991 RMK A01 T01171016  RH  040%=      5-min Rain = 0
KTAS 081344Z 05006KT 12/M02 A2991 RMK A01 T01181015  RH  040%=      5-min Rain = 0
KTAS 081345Z 04007KT 12/M01 A2991 RMK A01 T01191014  RH  040%=      5-min Rain = 0
KTAS 081346Z 05006KT 12/M01 A2991 RMK A01 T01201014  RH  039%=      5-min Rain = 0
KTAS 081347Z 04006KT 12/M01 A2991 RMK A01 T01211013  RH  039%=      5-min Rain = 0
KTAS 081348Z 05006KT 12/M01 A2991 RMK A01 T01221014  RH  039%=      5-min Rain = 0
KTAS 081349Z 04006KT 12/M01 A2991 RMK A01 T01221013  RH  039%=      5-min Rain = 0
KTAS 081350Z 05006KT 12/M01 A2991 RMK A01 T01241012  RH  039%=      5-min Rain = 0
KTAS 081351Z 05007KT 13/M01 A2991 RMK A01 T01251013  RH  039%=      5-min Rain = 0
KTAS 081352Z 05006KT 13/M01 A2991 RMK A01 T01261012  RH  038%=      5-min Rain = 0
KTAS 081353Z 06006KT 13/M01 A2992 RMK A01 T01271012  RH  038%=      5-min Rain = 0
KTAS 081354Z 05007KT 13/M01 A2991 RMK A01 T01271012  RH  038%=      5-min Rain = 0
KTAS 081355Z 05007KT 13/M01 A2991 RMK A01 T01271012  RH  038%=      5-min Rain = 0
KTAS 081356Z 05008KT 13/M01 A2991 RMK A01 T01271011  RH  038%=      5-min Rain = 0
KTAS 081357Z 05007KT 13/M01 A2991 RMK A01 T01281011  RH  038%=      5-min Rain = 0
KTAS 081358Z 06007KT 13/M01 A2991 RMK A01 T01291010  RH  038%=      5-min Rain = 0
KTAS 081359Z 06007KT 13/M01 A2991 RMK A01 T01301010  RH  038%=      5-min Rain = 0
KTAS 081400Z 06007KT 13/M01 A2991 RMK A01 T01321008  RH  038%=      5-min Rain = 0
KTAS 081401Z 06007KT 13/M01 A2991 RMK A01 T01341008  RH  038%=      5-min Rain = 0
KTAS 081402Z 05007KT 13/M01 A2991 RMK A01 T01341009  RH  037%=      5-min Rain = 0
KTAS 081403Z 06007KT 13/M01 A2991 RMK A01 T01341009  RH  037%=      5-min Rain = 0
KTAS 081404Z 07006KT 14/M01 A2991 RMK A01 T01351007  RH  038%=      5-min Rain = 0
KTAS 081405Z 06008KT 14/M01 A2991 RMK A01 T01391005  RH  037%=      5-min Rain = 0
KTAS 081406Z 07006KT 14/M01 A2992 RMK A01 T01421005  RH  036%=      5-min Rain = 0
KTAS 081407Z 07006KT 15/M00 A2992 RMK A01 T01451003  RH  036%=      5-min Rain = 0
KTAS 081408Z 07007KT 15/M00 A2992 RMK A01 T01481004  RH  035%=      5-min Rain = 0
KTAS 081409Z 06009KT 15/M01 A2991 RMK A01 T01481006  RH  035%=      5-min Rain = 0
KTAS 081410Z 07008KT 15/M01 A2991 RMK A01 T01491006  RH  035%=      5-min Rain = 0
KTAS 081411Z 08010KT 15/M01 A2991 RMK A01 T01491006  RH  034%=      5-min Rain = 0
KTAS 081412Z 07009KT 15/M01 A2991 RMK A01 T01501006  RH  034%=      5-min Rain = 0
KTAS 081413Z 08009KT 15/M01 A2991 RMK A01 T01501006  RH  034%=      5-min Rain = 0
KTAS 081414Z 08008KT 15/M01 A2991 RMK A01 T01511006  RH  034%=      5-min Rain = 0
KTAS 081415Z 08009KT 15/M01 A2991 RMK A01 T01521005  RH  034%=      5-min Rain = 0
KTAS 081416Z 08012KT 15/M01 A2991 RMK A01 T01521007  RH  034%=      5-min Rain = 0
KTAS 081417Z 08011KT 15/M01 A2991 RMK A01 T01521006  RH  034%=      5-min Rain = 0
KTAS 081418Z 07011KT 15/M01 A2991 RMK A01 T01521007  RH  034%=      5-min Rain = 0
KTAS 081419Z 07012KT 15/M01 A2991 RMK A01 T01531007  RH  034%=      5-min Rain = 0
KTAS 081420Z 08008KT 15/M01 A2991 RMK A01 T01531006  RH  034%=      5-min Rain = 0
KTAS 081421Z 08011KT 16/M00 A2991 RMK A01 T01561004  RH  034%=      5-min Rain = 0
KTAS 081422Z 09012KT 16/M01 A2991 RMK A01 T01561007  RH  033%=      5-min Rain = 0
KTAS 081423Z 08011KT 16/M01 A2991 RMK A01 T01561006  RH  033%=      5-min Rain = 0
KTAS 081424Z 07012KT 16/M01 A2991 RMK A01 T01571006  RH  033%=      5-min Rain = 0
KTAS 081425Z 07011KT 16/M01 A2991 RMK A01 T01561006  RH  033%=      5-min Rain = 0
KTAS 081426Z 08011KT 16/M01 A2991 RMK A01 T01571006  RH  033%=      5-min Rain = 0
KTAS 081427Z 08012KT 16/M01 A2991 RMK A01 T01571007  RH  033%=      5-min Rain = 0
KTAS 081428Z 08011KT 16/M01 A2991 RMK A01 T01571007  RH  033%=      5-min Rain = 0
KTAS 081429Z 08011KT 16/M01 A2991 RMK A01 T01571007  RH  033%=      5-min Rain = 0
KTAS 081430Z 09011KT 16/M01 A2991 RMK A01 T01581006  RH  033%=      5-min Rain = 0
KTAS 081431Z 07010KT 16/M01 A2991 RMK A01 T01591006  RH  033%=      5-min Rain = 0
KTAS 081432Z 08010KT 16/M00 A2991 RMK A01 T01601004  RH  033%=      5-min Rain = 0
KTAS 081433Z 08009KT 16/M00 A2991 RMK A01 T01621002  RH  033%=      5-min Rain = 0
KTAS 081434Z 09009KT 17/M00 A2991 RMK A01 T01651004  RH  032%=      5-min Rain = 0
KTAS 081435Z 08009KT 17/M00 A2991 RMK A01 T01651004  RH  032%=      5-min Rain = 0
KTAS 081436Z 09009KT 16/M01 A2991 RMK A01 T01641006  RH  032%=      5-min Rain = 0
KTAS 081437Z 08009KT 17/M00 A2991 RMK A01 T01651004  RH  032%=      5-min Rain = 0
KTAS 081438Z 07012KT 17/M01 A2991 RMK A01 T01661005  RH  031%=      5-min Rain = 0
KTAS 081439Z 08011KT 17/M01 A2991 RMK A01 T01651007  RH  031%=      5-min Rain = 0
KTAS 081440Z 08013KT 16/M01 A2991 RMK A01 T01641006  RH  032%=      5-min Rain = 0
KTAS 081441Z 08011KT 16/M01 A2991 RMK A01 T01641007  RH  031%=      5-min Rain = 0
KTAS 081442Z 09011KT 17/M01 A2991 RMK A01 T01651005  RH  031%=      5-min Rain = 0
KTAS 081443Z 08010KT 17/M01 A2991 RMK A01 T01661006  RH  031%=      5-min Rain = 0
KTAS 081444Z 07009KT 17/M01 A2991 RMK A01 T01681005  RH  031%=      5-min Rain = 0
KTAS 081445Z 07009KT 17/M00 A2991 RMK A01 T01701004  RH  031%=      5-min Rain = 0
KTAS 081446Z 07008KT 17/M00 A2991 RMK A01 T01721004  RH  030%=      5-min Rain = 0
KTAS 081447Z 07011KT 17/M00 A2991 RMK A01 T01731004  RH  030%=      5-min Rain = 0
KTAS 081448Z 06013KT 17/M01 A2991 RMK A01 T01721008  RH  029%=      5-min Rain = 0
KTAS 081449Z 07013KT 17/M01 A2991 RMK A01 T01701009  RH  030%=      5-min Rain = 0
KTAS 081450Z 07010KT 17/M01 A2991 RMK A01 T01701009  RH  030%=      5-min Rain = 0
KTAS 081451Z 08010KT 17/M01 A2991 RMK A01 T01731007  RH  029%=      5-min Rain = 0
KTAS 081452Z 09009KT 18/M01 A2991 RMK A01 T01751007  RH  029%=      5-min Rain = 0
KTAS 081453Z 09011KT 17/M01 A2991 RMK A01 T01741008  RH  029%=      5-min Rain = 0
KTAS 081454Z 09010KT 17/M01 A2991 RMK A01 T01731007  RH  029%=      5-min Rain = 0
KTAS 081455Z 09010KT 18/M01 A2991 RMK A01 T01751009  RH  029%=      5-min Rain = 0
KTAS 081456Z 08012KT 18/M01 A2991 RMK A01 T01751010  RH  028%=      5-min Rain = 0
KTAS 081457Z 08012KT 17/M01 A2991 RMK A01 T01741012  RH  028%=      5-min Rain = 0
KTAS 081458Z 08012KT 17/M02 A2991 RMK A01 T01741015  RH  028%=      5-min Rain = 0
KTAS 081459Z 07013KT 18/M01 A2991 RMK A01 T01751014  RH  028%=      5-min Rain = 0
KTAS 081500Z 07011KT 17/M01 A2991 RMK A01 T01741013  RH  028%=      5-min Rain = 0
KTAS 081501Z 07010KT 17/M01 A2991 RMK A01 T01741011  RH  028%=      5-min Rain = 0
KTAS 081502Z 09012KT 18/M01 A299 RMK A01 T01761010  RH  028%=      5-min Rain = 0
KTAS 081503Z 07012KT 18/M01 A299 RMK A01 T01761012  RH  028%=      5-min Rain = 0
KTAS 081504Z 10012KT 18/M01 A299 RMK A01 T01761014  RH  027%=      5-min Rain = 0
KTAS 081505Z 09011KT 18/M02 A299 RMK A01 T01761015  RH  027%=      5-min Rain = 0
KTAS 081506Z 08010KT 18/M02 A299 RMK A01 T01771016  RH  027%=      5-min Rain = 0
KTAS 081507Z 09011KT 18/M01 A299 RMK A01 T01771014  RH  027%=      5-min Rain = 0
KTAS 081508Z 08010KT 18/M01 A299 RMK A01 T01771014  RH  027%=      5-min Rain = 0
KTAS 081509Z 08011KT 18/M01 A299 RMK A01 T01791012  RH  027%=      5-min Rain = 0
KTAS 081510Z 10010KT 18/M01 A299 RMK A01 T01801013  RH  027%=      5-min Rain = 0
KTAS 081511Z 09010KT 18/M01 A299 RMK A01 T01811012  RH  027%=      5-min Rain = 0
KTAS 081512Z 10011KT 18/M01 A299 RMK A01 T01811014  RH  027%=      5-min Rain = 0
KTAS 081513Z 09011KT 18/M01 A299 RMK A01 T01821014  RH  027%=      5-min Rain = 0
KTAS 081514Z 09011KT 18/M02 A299 RMK A01 T01801015  RH  027%=      5-min Rain = 0
KTAS 081515Z 07009KT 18/M02 A299 RMK A01 T01761016  RH  027%=      5-min Rain = 0
KTAS 081516Z 07011KT 18/M02 A299 RMK A01 T01771016  RH  027%=      5-min Rain = 0
KTAS 081517Z 07010KT 18/M01 A299 RMK A01 T01791014  RH  027%=      5-min Rain = 0
KTAS 081518Z 07010KT 18/M02 A299 RMK A01 T01791016  RH  027%=      5-min Rain = 0
KTAS 081519Z 10007KT 18/M01 A299 RMK A01 T01801012  RH  027%=      5-min Rain = 0
KTAS 081520Z 11009KT 18/M02 A299 RMK A01 T01811015  RH  026%=      5-min Rain = 0
KTAS 081521Z 10009KT 18/M02 A299 RMK A01 T01811016  RH  026%=      5-min Rain = 0
KTAS 081522Z 11009KT 18/M02 A299 RMK A01 T01831016  RH  026%=      5-min Rain = 0
KTAS 081523Z 09010KT 18/M02 A299 RMK A01 T01821016  RH  026%=      5-min Rain = 0
KTAS 081524Z 07009KT 18/M02 A299 RMK A01 T01821015  RH  026%=      5-min Rain = 0
KTAS 081525Z 08009KT 18/M01 A2991 RMK A01 T01811014  RH  027%=      5-min Rain = 0
KTAS 081526Z 07008KT 18/M01 A2991 RMK A01 T01811011  RH  027%=      5-min Rain = 0
KTAS 081527Z 07009KT 18/M01 A299 RMK A01 T01831012  RH  027%=      5-min Rain = 0
KTAS 081528Z 11010KT 18/M02 A2991 RMK A01 T01831015  RH  026%=      5-min Rain = 0
KTAS 081529Z 11011KT 18/M02 A2991 RMK A01 T01801018  RH  026%=      5-min Rain = 0
KTAS 081530Z 11011KT 18/M02 A2991 RMK A01 T01771019  RH  026%=      5-min Rain = 0
KTAS 081531Z 11008KT 18/M02 A2991 RMK A01 T01771018  RH  027%=      5-min Rain = 0
KTAS 081532Z 10007KT 18/M02 A299 RMK A01 T01781015  RH  027%=      5-min Rain = 0
KTAS 081533Z 09008KT 18/M01 A299 RMK A01 T01821011  RH  027%=      5-min Rain = 0
KTAS 081534Z 11008KT 19/M01 A299 RMK A01 T01871013  RH  026%=      5-min Rain = 0
KTAS 081535Z 08009KT 18/M02 A299 RMK A01 T01841016  RH  026%=      5-min Rain = 0
KTAS 081536Z 08009KT 18/M02 A299 RMK A01 T01811017  RH  026%=      5-min Rain = 0
KTAS 081537Z 09010KT 18/M02 A299 RMK A01 T01801015  RH  027%=      5-min Rain = 0
KTAS 081538Z 07009KT 18/M01 A299 RMK A01 T01821011  RH  027%=      5-min Rain = 0
KTAS 081539Z 07009KT 18/M01 A299 RMK A01 T01831013  RH  026%=      5-min Rain = 0
KTAS 081540Z 08009KT 18/M01 A299 RMK A01 T01841012  RH  027%=      5-min Rain = 0
KTAS 081541Z 07012KT 19/M01 A299 RMK A01 T01851014  RH  026%=      5-min Rain = 0
KTAS 081542Z 08011KT 18/M02 A299 RMK A01 T01841017  RH  025%=      5-min Rain = 0
KTAS 081543Z 07011KT 19/M01 A299 RMK A01 T01861013  RH  026%=      5-min Rain = 0
KTAS 081544Z 07010KT 19/M01 A299 RMK A01 T01851013  RH  026%=      5-min Rain = 0
KTAS 081545Z 08010KT 19/M01 A299 RMK A01 T01861011  RH  026%=      5-min Rain = 0
KTAS 081546Z 08012KT 19/M01 A299 RMK A01 T01861011  RH  026%=      5-min Rain = 0
KTAS 081547Z 08010KT 19/M01 A299 RMK A01 T01851011  RH  026%=      5-min Rain = 0
KTAS 081548Z 08008KT 18/M01 A299 RMK A01 T01831011  RH  027%=      5-min Rain = 0
KTAS 081549Z 08008KT 19/M01 A299 RMK A01 T01851009  RH  027%=      5-min Rain = 0
KTAS 081550Z 07010KT 19/M01 A299 RMK A01 T01861010  RH  027%=      5-min Rain = 0
KTAS 081551Z 10011KT 19/M01 A299 RMK A01 T01891008  RH  026%=      5-min Rain = 0
KTAS 081552Z 10011KT 19/M01 A299 RMK A01 T01911008  RH  026%=      5-min Rain = 0
KTAS 081553Z 09009KT 19/M01 A299 RMK A01 T01891012  RH  026%=      5-min Rain = 0
KTAS 081554Z 08010KT 19/M01 A299 RMK A01 T01861013  RH  026%=      5-min Rain = 0
KTAS 081555Z 08006KT 19/M01 A299 RMK A01 T01861013  RH  026%=      5-min Rain = 0
KTAS 081556Z 10007KT 19/M01 A299 RMK A01 T01891010  RH  026%=      5-min Rain = 0
KTAS 081557Z 09006KT 19/M01 A299 RMK A01 T01921010  RH  026%=      5-min Rain = 0
KTAS 081558Z 10007KT 20/M01 A299 RMK A01 T01951009  RH  025%=      5-min Rain = 0
KTAS 081559Z 07007KT 19/M01 A299 RMK A01 T01921010  RH  025%=      5-min Rain = 0
KTAS 081600Z 09008KT 19/M01 A299 RMK A01 T01911010  RH  026%=      5-min Rain = 0
KTAS 081601Z 08005KT 19/M01 A299 RMK A01 T01911011  RH  026%=      5-min Rain = 0
KTAS 081602Z 09006G11KT 19/M01 A299 RMK A01 T01931009  RH  026%=      5-min Rain = 0
KTAS 081603Z 10009KT 20/M01 A299 RMK A01 T01951012  RH  025%=      5-min Rain = 0
KTAS 081604Z 09007KT 19/M02 A299 RMK A01 T01911016  RH  025%=      5-min Rain = 0
KTAS 081605Z 09008KT 19/M02 A299 RMK A01 T01891018  RH  024%=      5-min Rain = 0
KTAS 081606Z 10007KT 19/M02 A299 RMK A01 T01891016  RH  025%=      5-min Rain = 0
KTAS 081607Z 09007KT 19/M01 A299 RMK A01 T01881014  RH  025%=      5-min Rain = 0
KTAS 081608Z 07006KT 19/M02 A299 RMK A01 T01881015  RH  025%=      5-min Rain = 0
KTAS 081609Z 09007G12KT 19/M01 A299 RMK A01 T01861014  RH  026%=      5-min Rain = 0
KTAS 081610Z 11009KT 19/M01 A299 RMK A01 T01891014  RH  025%=      5-min Rain = 0
KTAS 081611Z 10007KT 19/M01 A299 RMK A01 T01901012  RH  026%=      5-min Rain = 0
KTAS 081612Z 11005KT 19/M01 A299 RMK A01 T01911013  RH  025%=      5-min Rain = 0
KTAS 081613Z 09007KT 19/M01 A299 RMK A01 T01921012  RH  025%=      5-min Rain = 0
KTAS 081614Z 08008KT 19/M01 A2991 RMK A01 T01921014  RH  025%=      5-min Rain = 0
KTAS 081615Z 09006KT 19/M01 A2991 RMK A01 T01921014  RH  025%=      5-min Rain = 0
KTAS 081616Z 08004KT 19/M02 A2991 RMK A01 T01921015  RH  025%=      5-min Rain = 0
KTAS 081617Z 10006KT 19/M02 A2991 RMK A01 T01931015  RH  025%=      5-min Rain = 0
KTAS 081618Z 10009KT 19/M01 A2991 RMK A01 T01931014  RH  025%=      5-min Rain = 0
KTAS 081619Z 08007KT 19/M01 A2991 RMK A01 T01921013  RH  025%=      5-min Rain = 0
KTAS 081620Z 07006KT 20/M01 A2991 RMK A01 T01951011  RH  025%=      5-min Rain = 0
KTAS 081621Z 07004KT 19/M01 A2991 RMK A01 T01931013  RH  025%=      5-min Rain = 0
KTAS 081622Z 11007KT 19/M01 A2991 RMK A01 T01941011  RH  025%=      5-min Rain = 0
KTAS 081623Z 10006KT 19/M02 A2991 RMK A01 T01941015  RH  024%=      5-min Rain = 0
KTAS 081624Z 10005KT 19/M02 A2991 RMK A01 T01921016  RH  025%=      5-min Rain = 0
KTAS 081625Z 10005KT 19/M02 A2991 RMK A01 T01931015  RH  025%=      5-min Rain = 0
KTAS 081626Z 10005KT 19/M02 A2991 RMK A01 T01931015  RH  024%=      5-min Rain = 0
KTAS 081627Z 12003KT 19/M02 A2991 RMK A01 T01931017  RH  024%=      5-min Rain = 0
KTAS 081628Z 09006KT 19/M02 A2991 RMK A01 T01931015  RH  024%=      5-min Rain = 0
KTAS 081629Z 10005KT 19/M02 A299 RMK A01 T01941015  RH  024%=      5-min Rain = 0
KTAS 081630Z 07004G9KT 19/M02 A299 RMK A01 T01941015  RH  024%=      5-min Rain = 0
KTAS 081631Z 06007KT 19/M02 A299 RMK A01 T01931016  RH  024%=      5-min Rain = 0
KTAS 081632Z 07007KT 20/M01 A299 RMK A01 T01971012  RH  024%=      5-min Rain = 0
KTAS 081633Z 07006KT 20/M02 A299 RMK A01 T01981017  RH  023%=      5-min Rain = 0
KTAS 081634Z 08005KT 20/M02 A299 RMK A01 T01961017  RH  024%=      5-min Rain = 0
KTAS 081635Z 05006KT 19/M02 A299 RMK A01 T01941017  RH  024%=      5-min Rain = 0
KTAS 081636Z 05004KT 19/M02 A299 RMK A01 T01921019  RH  024%=      5-min Rain = 0
KTAS 081637Z 03004KT 19/M02 A299 RMK A01 T01931018  RH  024%=      5-min Rain = 0
KTAS 081638Z 04003KT 19/M02 A299 RMK A01 T01931018  RH  024%=      5-min Rain = 0
KTAS 081639Z 05005KT 20/M02 A299 RMK A01 T01981015  RH  024%=      5-min Rain = 0
KTAS 081640Z 03006KT 20/M02 A299 RMK A01 T02001019  RH  023%=      5-min Rain = 0
KTAS 081641Z 03006KT 20/M02 A299 RMK A01 T01981021  RH  023%=      5-min Rain = 0
KTAS 081642Z 04003KT 20/M02 A299 RMK A01 T01971023  RH  023%=      5-min Rain = 0
KTAS 081643Z 06006KT 20/M02 A299 RMK A01 T01971022  RH  023%=      5-min Rain = 0
KTAS 081644Z 05005KT 20/M02 A299 RMK A01 T01991021  RH  023%=      5-min Rain = 0
KTAS 081645Z 03006KT 20/M02 A299 RMK A01 T02001023  RH  022%=      5-min Rain = 0
KTAS 081646Z 03003KT 20/M03 A299 RMK A01 T02011025  RH  022%=      5-min Rain = 0
KTAS 081647Z 07004KT 20/M02 A299 RMK A01 T02031021  RH  022%=      5-min Rain = 0
KTAS 081648Z 08003KT 21/M02 A299 RMK A01 T02061016  RH  022%=      5-min Rain = 0
KTAS 081649Z 09005KT 21/M02 A299 RMK A01 T02061017  RH  022%=      5-min Rain = 0
KTAS 081650Z 11004KT 20/M02 A299 RMK A01 T02031019  RH  022%=      5-min Rain = 0
KTAS 081651Z 13006KT 20/M02 A299 RMK A01 T02031019  RH  022%=      5-min Rain = 0
KTAS 081652Z 12003KT 20/M02 A299 RMK A01 T02011021  RH  022%=      5-min Rain = 0
KTAS 081653Z 13005KT 20/M02 A299 RMK A01 T02021017  RH  023%=      5-min Rain = 0
KTAS 081654Z 12003KT 20/M02 A299 RMK A01 T02041019  RH  022%=      5-min Rain = 0
KTAS 081655Z 14003KT 20/M02 A299 RMK A01 T02031020  RH  022%=      5-min Rain = 0
KTAS 081656Z 16000KT 20/M02 A2989 RMK A01 T02031020  RH  022%=      5-min Rain = 0
KTAS 081657Z 11004KT 20/M02 A2989 RMK A01 T02041019  RH  022%=      5-min Rain = 0
KTAS 081658Z 11005KT 21/M02 A2989 RMK A01 T02051018  RH  022%=      5-min Rain = 0
KTAS 081659Z 14003KT 21/M02 A2989 RMK A01 T02051018  RH  022%=      5-min Rain = 0
KTAS 081700Z 12004KT 21/M02 A2989 RMK A01 T02071016  RH  022%=      5-min Rain = 0
KTAS 081701Z 12006KT 21/M02 A2989 RMK A01 T02081018  RH  022%=      5-min Rain = 0
KTAS 081702Z 11005KT 21/M02 A2989 RMK A01 T02061019  RH  022%=      5-min Rain = 0
KTAS 081703Z 09005KT 20/M02 A2989 RMK A01 T02031021  RH  022%=      5-min Rain = 0
KTAS 081704Z 08006KT 20/M02 A2989 RMK A01 T02031017  RH  023%=      5-min Rain = 0
KTAS 081705Z 07006KT 20/M02 A2989 RMK A01 T02031019  RH  022%=      5-min Rain = 0
KTAS 081706Z 05004KT 20/M02 A2989 RMK A01 T02021016  RH  023%=      5-min Rain = 0
KTAS 081707Z 03005KT 21/M02 A2989 RMK A01 T02051018  RH  022%=      5-min Rain = 0
KTAS 081708Z 00005KT 20/M02 A2989 RMK A01 T02021020  RH  022%=      5-min Rain = 0
KTAS 081709Z 00005KT 20/M02 A2989 RMK A01 T02041019  RH  022%=      5-min Rain = 0
KTAS 081710Z 02004KT 20/M02 A2989 RMK A01 T02041019  RH  022%=      5-min Rain = 0
KTAS 081711Z 04004KT 21/M02 A2989 RMK A01 T02061017  RH  022%=      5-min Rain = 0
KTAS 081712Z 06004KT 21/M02 A2989 RMK A01 T02081018  RH  022%=      5-min Rain = 0
KTAS 081713Z 08003KT 21/M02 A2989 RMK A01 T02091017  RH  022%=      5-min Rain = 0
KTAS 081714Z 09004KT 21/M02 A2989 RMK A01 T02081019  RH  022%=      5-min Rain = 0
KTAS 081715Z 03005KT 21/M02 A2989 RMK A01 T02071019  RH  022%=      5-min Rain = 0
KTAS 081716Z 05004KT 20/M02 A2989 RMK A01 T02041020  RH  022%=      5-min Rain = 0
KTAS 081717Z 08001KT 20/M02 A2989 RMK A01 T02041018  RH  022%=      5-min Rain = 0
KTAS 081718Z 04002KT 21/M02 A2989 RMK A01 T02051018  RH  022%=      5-min Rain = 0
KTAS 081719Z 09003KT 21/M02 A2989 RMK A01 T02071018  RH  022%=      5-min Rain = 0
KTAS 081720Z 09005KT 21/M02 A2989 RMK A01 T02091018  RH  022%=      5-min Rain = 0
KTAS 081721Z 09003KT 21/M02 A2989 RMK A01 T02061021  RH  021%=      5-min Rain = 0
KTAS 081722Z 07004KT 21/M02 A2989 RMK A01 T02061021  RH  022%=      5-min Rain = 0
KTAS 081723Z 07003KT 20/M02 A2989 RMK A01 T02041023  RH  022%=      5-min Rain = 0
KTAS 081724Z 09003KT 20/M02 A2989 RMK A01 T02041022  RH  022%=      5-min Rain = 0
KTAS 081725Z 14003KT 21/M02 A2989 RMK A01 T02051021  RH  022%=      5-min Rain = 0
KTAS 081726Z 18002KT 21/M02 A2989 RMK A01 T02051021  RH  022%=      5-min Rain = 0
KTAS 081727Z 20001KT 21/M02 A2989 RMK A01 T02061021  RH  022%=      5-min Rain = 0
KTAS 081728Z 18001KT 21/M02 A2989 RMK A01 T02071021  RH  021%=      5-min Rain = 0
KTAS 081729Z 19001KT 21/M02 A2989 RMK A01 T02081020  RH  021%=      5-min Rain = 0
KTAS 081730Z 04004KT 21/M02 A2989 RMK A01 T02101018  RH  022%=      5-min Rain = 0
KTAS 081731Z 04004KT 21/M02 A2989 RMK A01 T02111019  RH  021%=      5-min Rain = 0
KTAS 081732Z 05004KT 21/M02 A2989 RMK A01 T02111019  RH  021%=      5-min Rain = 0
KTAS 081733Z 03004KT 21/M02 A2989 RMK A01 T02091019  RH  022%=      5-min Rain = 0
KTAS 081734Z 03004KT 21/M02 A2989 RMK A01 T02111017  RH  022%=      5-min Rain = 0
KTAS 081735Z 07004KT 21/M02 A2989 RMK A01 T02131016  RH  021%=      5-min Rain = 0
KTAS 081736Z 07003KT 21/M02 A2989 RMK A01 T02121020  RH  021%=      5-min Rain = 0
KTAS 081737Z 06001KT 21/M02 A2989 RMK A01 T02101019  RH  021%=      5-min Rain = 0
KTAS 081738Z 05002KT 21/M02 A2989 RMK A01 T02121017  RH  022%=      5-min Rain = 0
KTAS 081739Z 09004KT 21/M02 A2989 RMK A01 T02141017  RH  021%=      5-min Rain = 0
KTAS 081740Z 07005KT 22/M02 A2989 RMK A01 T02151017  RH  021%=      5-min Rain = 0
KTAS 081741Z 10004KT 22/M02 A2988 RMK A01 T02151018  RH  021%=      5-min Rain = 0
KTAS 081742Z 10006KT 22/M02 A2988 RMK A01 T02171017  RH  021%=      5-min Rain = 0
KTAS 081743Z 09006KT 22/M02 A2988 RMK A01 T02151019  RH  021%=      5-min Rain = 0
KTAS 081744Z 10003KT 21/M02 A2988 RMK A01 T02131019  RH  021%=      5-min Rain = 0
KTAS 081745Z 12003KT 21/M02 A2988 RMK A01 T02121020  RH  021%=      5-min Rain = 0
KTAS 081746Z 13003KT 21/M02 A2988 RMK A01 T02121018  RH  021%=      5-min Rain = 0
KTAS 081747Z 16002KT 21/M02 A2988 RMK A01 T02141018  RH  021%=      5-min Rain = 0
KTAS 081748Z 14002KT 22/M02 A2988 RMK A01 T02151017  RH  021%=      5-min Rain = 0
KTAS 081749Z 07004KT 22/M02 A2988 RMK A01 T02191017  RH  021%=      5-min Rain = 0
KTAS 081750Z 09002KT 22/M02 A2988 RMK A01 T02181021  RH  020%=      5-min Rain = 0
KTAS 081751Z 04004KT 22/M02 A2988 RMK A01 T02181019  RH  020%=      5-min Rain = 0
KTAS 081752Z 05004KT 22/M02 A2988 RMK A01 T02181024  RH  020%=      5-min Rain = 0
KTAS 081753Z 03001KT 22/M02 A2988 RMK A01 T02151022  RH  020%=      5-min Rain = 0
KTAS 081754Z 31002KT 22/M02 A2988 RMK A01 T02171021  RH  020%=      5-min Rain = 0
KTAS 081755Z 30001KT 22/M02 A2988 RMK A01 T02161023  RH  020%=      5-min Rain = 0
KTAS 081756Z 01003KT 22/M02 A2988 RMK A01 T02181021  RH  020%=      5-min Rain = 0
KTAS 081757Z 04003KT 22/M02 A2988 RMK A01 T02201023  RH  020%=      5-min Rain = 0
KTAS 081758Z 34001KT 22/M03 A2988 RMK A01 T02221025  RH  019%=      5-min Rain = 0
KTAS 081759Z 33001KT 22/M03 A2987 RMK A01 T02211026  RH  019%=      5-min Rain = 0
KTAS 081800Z 07005KT 22/M02 A2987 RMK A01 T02231021  RH  020%=      5-min Rain = 0
KTAS 081801Z 09006KT 23/M02 A2987 RMK A01 T02271018  RH  019%=      5-min Rain = 0
KTAS 081802Z 10007KT 23/M02 A2987 RMK A01 T02301020  RH  019%=      5-min Rain = 0
KTAS 081803Z 12006KT 23/M02 A2987 RMK A01 T02271022  RH  019%=      5-min Rain = 0
KTAS 081804Z 12004KT 22/M02 A2987 RMK A01 T02231023  RH  019%=      5-min Rain = 0
KTAS 081805Z 16002KT 22/M02 A2987 RMK A01 T02231023  RH  019%=      5-min Rain = 0
KTAS 081806Z 22002KT 22/M02 A2987 RMK A01 T02231023  RH  019%=      5-min Rain = 0
KTAS 081807Z 18002KT 22/M03 A2987 RMK A01 T02221026  RH  019%=      5-min Rain = 0
KTAS 081808Z 15001KT 22/M03 A2987 RMK A01 T02201025  RH  019%=      5-min Rain = 0
KTAS 081809Z 14001KT 22/M02 A2987 RMK A01 T02211024  RH  019%=      5-min Rain = 0
KTAS 081810Z 17003KT 22/M02 A2987 RMK A01 T02231024  RH  019%=      5-min Rain = 0
KTAS 081811Z 17002KT 22/M02 A2987 RMK A01 T02231024  RH  019%=      5-min Rain = 0
KTAS 081812Z 19003KT 22/M02 A2987 RMK A01 T02241021  RH  019%=      5-min Rain = 0
KTAS 081813Z 20002KT 23/M02 A2987 RMK A01 T02251023  RH  019%=      5-min Rain = 0
KTAS 081814Z 22005KT 22/M02 A2986 RMK A01 T02241024  RH  019%=      5-min Rain = 0
KTAS 081815Z 17004KT 22/M02 A2986 RMK A01 T02241024  RH  019%=      5-min Rain = 0
KTAS 081816Z 17004KT 23/M03 A2986 RMK A01 T02251025  RH  019%=      5-min Rain = 0
KTAS 081817Z 16004KT 22/M02 A2986 RMK A01 T02241024  RH  019%=      5-min Rain = 0
KTAS 081818Z 15003KT 23/M02 A2986 RMK A01 T02271022  RH  019%=      5-min Rain = 0
KTAS 081819Z 15002KT 23/M03 A2986 RMK A01 T02301026  RH  018%=      5-min Rain = 0
KTAS 081820Z 12002KT 23/M03 A2986 RMK A01 T02291028  RH  018%=      5-min Rain = 0
KTAS 081821Z 14002KT 23/M03 A2986 RMK A01 T02291028  RH  018%=      5-min Rain = 0
KTAS 081822Z 14004KT 23/M03 A2986 RMK A01 T02301026  RH  018%=      5-min Rain = 0
KTAS 081823Z 11005KT 23/M02 A2986 RMK A01 T02321024  RH  018%=      5-min Rain = 0
KTAS 081824Z 11005KT 23/M03 A2986 RMK A01 T02311025  RH  018%=      5-min Rain = 0
KTAS 081825Z 13004KT 23/M03 A2986 RMK A01 T02291027  RH  018%=      5-min Rain = 0
KTAS 081826Z 10001KT 23/M03 A2986 RMK A01 T02291026  RH  018%=      5-min Rain = 0
KTAS 081827Z 06005KT 23/M02 A2986 RMK A01 T02331022  RH  018%=      5-min Rain = 0
KTAS 081828Z 06005KT 24/M03 A2986 RMK A01 T02361027  RH  017%=      5-min Rain = 0
KTAS 081829Z 11004KT 23/M03 A2986 RMK A01 T02331028  RH  017%=      5-min Rain = 0
KTAS 081830Z 12003KT 23/M03 A2986 RMK A01 T02341028  RH  017%=      5-min Rain = 0
KTAS 081831Z 13003KT 23/M03 A2986 RMK A01 T02341027  RH  017%=      5-min Rain = 0
KTAS 081832Z 17004KT 24/M03 A2986 RMK A01 T02361028  RH  017%=      5-min Rain = 0
KTAS 081833Z 13005KT 24/M03 A2985 RMK A01 T02361029  RH  017%=      5-min Rain = 0
KTAS 081834Z 15004KT 24/M03 A2986 RMK A01 T02351029  RH  017%=      5-min Rain = 0
KTAS 081835Z 17002KT 23/M03 A2986 RMK A01 T02341028  RH  017%=      5-min Rain = 0
KTAS 081836Z 20003KT 23/M03 A2986 RMK A01 T02341027  RH  017%=      5-min Rain = 0
KTAS 081837Z 19005KT 23/M03 A2986 RMK A01 T02331028  RH  017%=      5-min Rain = 0
KTAS 081838Z 17005KT 23/M03 A2985 RMK A01 T02321027  RH  018%=      5-min Rain = 0
KTAS 081839Z 18004KT 23/M03 A2985 RMK A01 T02321027  RH  018%=      5-min Rain = 0
KTAS 081840Z 15003KT 23/M03 A2985 RMK A01 T02311027  RH  018%=      5-min Rain = 0
KTAS 081841Z 12003KT 23/M03 A2985 RMK A01 T02331025  RH  018%=      5-min Rain = 0
KTAS 081842Z 09001KT 23/M03 A2985 RMK A01 T02341025  RH  018%=      5-min Rain = 0
KTAS 081843Z 30004KT 24/M03 A2985 RMK A01 T02371026  RH  017%=      5-min Rain = 0
KTAS 081844Z 32004KT 24/M05 A2985 RMK A01 T02391045  RH  015%=      5-min Rain = 0
KTAS 081845Z 35002KT 24/M05 A2985 RMK A01 T02401050  RH  014%=      5-min Rain = 0
KTAS 081846Z 30003KT 24/M05 A2985 RMK A01 T02401049  RH  014%=      5-min Rain = 0
KTAS 081847Z 32004KT 24/M04 A2985 RMK A01 T02431040  RH  015%=      5-min Rain = 0
KTAS 081848Z 30004G9KT 25/M03 A2985 RMK A01 T02471034  RH  015%=      5-min Rain = 0
KTAS 081849Z 25006KT 25/M03 A2985 RMK A01 T02461030  RH  016%=      5-min Rain = 0
KTAS 081850Z 25006KT 24/M03 A2985 RMK A01 T02441028  RH  016%=      5-min Rain = 0
KTAS 081851Z 25004KT 24/M04 A2985 RMK A01 T02411036  RH  016%=      5-min Rain = 0
KTAS 081852Z 21004KT 24/M03 A2985 RMK A01 T02401033  RH  016%=      5-min Rain = 0
KTAS 081853Z 23004KT 24/M03 A2985 RMK A01 T02401032  RH  016%=      5-min Rain = 0
KTAS 081854Z 28008KT 24/M04 A2985 RMK A01 T02421039  RH  015%=      5-min Rain = 0
KTAS 081855Z 29005KT 24/M04 A2985 RMK A01 T02421041  RH  015%=      5-min Rain = 0
KTAS 081856Z 27006KT 24/M04 A2984 RMK A01 T02411041  RH  015%=      5-min Rain = 0
KTAS 081857Z 26006KT 24/M04 A2984 RMK A01 T02411041  RH  015%=      5-min Rain = 0
KTAS 081858Z 24006KT 24/M04 A2984 RMK A01 T02391042  RH  015%=      5-min Rain = 0
KTAS 081859Z 24004KT 24/M05 A2984 RMK A01 T02371045  RH  015%=      5-min Rain = 0
KTAS 081900Z 24006KT 24/M04 A2984 RMK A01 T02381041  RH  015%=      5-min Rain = 0
KTAS 081901Z 26008KT 24/M04 A2984 RMK A01 T02411035  RH  016%=      5-min Rain = 0
KTAS 081902Z 28006KT 24/M04 A2984 RMK A01 T02441041  RH  015%=      5-min Rain = 0
KTAS 081903Z 26006KT 24/M04 A2984 RMK A01 T02441041  RH  015%=      5-min Rain = 0
KTAS 081904Z 24003KT 24/M04 A2984 RMK A01 T02441041  RH  015%=      5-min Rain = 0
KTAS 081905Z 30001KT 24/M04 A2984 RMK A01 T02431042  RH  015%=      5-min Rain = 0
KTAS 081906Z 21003KT 24/M04 A2984 RMK A01 T02441038  RH  015%=      5-min Rain = 0
KTAS 081907Z 22005G10KT 24/M04 A2984 RMK A01 T02441041  RH  015%=      5-min Rain = 0
KTAS 081908Z 24006KT 24/M04 A2984 RMK A01 T02441038  RH  015%=      5-min Rain = 0
KTAS 081909Z 23005KT 24/M04 A2984 RMK A01 T02431037  RH  015%=      5-min Rain = 0
KTAS 081910Z 24004KT 24/M04 A2984 RMK A01 T02411038  RH  015%=      5-min Rain = 0
KTAS 081911Z 24004G9KT 24/M03 A2984 RMK A01 T02431034  RH  016%=      5-min Rain = 0
KTAS 081912Z 23005KT 24/M04 A2984 RMK A01 T02441039  RH  015%=      5-min Rain = 0
KTAS 081913Z 23003KT 24/M04 A2984 RMK A01 T02411042  RH  015%=      5-min Rain = 0
KTAS 081914Z 27002KT 24/M04 A2984 RMK A01 T02401041  RH  015%=      5-min Rain = 0
KTAS 081915Z 23004KT 24/M04 A2984 RMK A01 T02421039  RH  015%=      5-min Rain = 0
KTAS 081916Z 24006KT 24/M04 A2984 RMK A01 T02441037  RH  015%=      5-min Rain = 0
KTAS 081917Z 23006KT 24/M04 A2984 RMK A01 T02441039  RH  015%=      5-min Rain = 0
KTAS 081918Z 23007KT 24/M04 A2983 RMK A01 T02431035  RH  016%=      5-min Rain = 0
KTAS 081919Z 23007KT 25/M04 A2983 RMK A01 T02471037  RH  015%=      5-min Rain = 0
KTAS 081920Z 28007KT 25/M04 A2984 RMK A01 T02471039  RH  015%=      5-min Rain = 0
KTAS 081921Z 30007KT 25/M04 A2984 RMK A01 T02461040  RH  015%=      5-min Rain = 0
KTAS 081922Z 29004KT 25/M04 A2983 RMK A01 T02451041  RH  015%=      5-min Rain = 0
KTAS 081923Z 29005KT 24/M04 A2983 RMK A01 T02441042  RH  015%=      5-min Rain = 0
KTAS 081924Z 33005KT 24/M04 A2983 RMK A01 T02441042  RH  015%=      5-min Rain = 0
KTAS 081925Z 30008KT 25/M04 A2983 RMK A01 T02461040  RH  015%=      5-min Rain = 0
KTAS 081926Z 31005KT 25/M04 A2983 RMK A01 T02471044  RH  014%=      5-min Rain = 0
KTAS 081927Z 33004KT 25/M04 A2983 RMK A01 T02471041  RH  015%=      5-min Rain = 0
KTAS 081928Z 32004KT 25/M05 A2983 RMK A01 T02481046  RH  014%=      5-min Rain = 0
KTAS 081929Z 32006KT 25/M04 A2983 RMK A01 T02481043  RH  014%=      5-min Rain = 0
KTAS 081930Z 32004KT 25/M04 A2983 RMK A01 T02481041  RH  014%=      5-min Rain = 0
KTAS 081931Z 35005KT 25/M04 A2983 RMK A01 T02501040  RH  014%=      5-min Rain = 0
KTAS 081932Z 34006KT 25/M04 A2983 RMK A01 T02491042  RH  014%=      5-min Rain = 0
KTAS 081933Z 32006KT 25/M04 A2983 RMK A01 T02471042  RH  014%=      5-min Rain = 0
KTAS 081934Z 32003KT 25/M04 A2983 RMK A01 T02491039  RH  015%=      5-min Rain = 0
KTAS 081935Z 30004KT 25/M04 A2983 RMK A01 T02511040  RH  014%=      5-min Rain = 0
KTAS 081936Z 33004KT 25/M04 A2983 RMK A01 T02511041  RH  014%=      5-min Rain = 0
KTAS 081937Z 34005KT 25/M04 A2982 RMK A01 T02511043  RH  014%=      5-min Rain = 0
KTAS 081938Z 35005KT 25/M04 A2982 RMK A01 T02511039  RH  014%=      5-min Rain = 0
KTAS 081939Z 32006KT 26/M04 A2982 RMK A01 T02551037  RH  014%=      5-min Rain = 0
KTAS 081940Z 32006G11KT 26/M04 A2982 RMK A01 T02571038  RH  014%=      5-min Rain = 0
KTAS 081941Z 24013KT 26/M03 A2982 RMK A01 T02621032  RH  014%=      5-min Rain = 0
KTAS 081942Z 21007KT 26/M04 A2982 RMK A01 T02601036  RH  014%=      5-min Rain = 0
KTAS 081943Z 23008KT 26/M03 A2982 RMK A01 T02571033  RH  014%=      5-min Rain = 0
KTAS 081944Z 24006KT 26/M03 A2982 RMK A01 T02571034  RH  014%=      5-min Rain = 0
KTAS 081945Z 25003KT 26/M04 A2982 RMK A01 T02551037  RH  014%=      5-min Rain = 0
KTAS 081946Z 26002KT 25/M04 A2982 RMK A01 T02531040  RH  014%=      5-min Rain = 0
KTAS 081947Z 24004KT 25/M04 A2982 RMK A01 T02531038  RH  014%=      5-min Rain = 0
KTAS 081948Z 25006KT 25/M04 A2982 RMK A01 T02521036  RH  015%=      5-min Rain = 0
KTAS 081949Z 25003KT 25/M04 A2982 RMK A01 T02521037  RH  014%=      5-min Rain = 0
KTAS 081950Z 20004KT 25/M04 A2982 RMK A01 T02531037  RH  014%=      5-min Rain = 0
KTAS 081951Z 20002KT 25/M04 A2982 RMK A01 T02541038  RH  014%=      5-min Rain = 0
KTAS 081952Z 21003KT 26/M04 A2981 RMK A01 T02561036  RH  014%=      5-min Rain = 0
KTAS 081953Z 18005KT 26/M04 A2981 RMK A01 T02581037  RH  014%=      5-min Rain = 0
KTAS 081954Z 19005KT 26/M04 A2981 RMK A01 T02611035  RH  014%=      5-min Rain = 0
KTAS 081955Z 18006KT 26/M04 A2981 RMK A01 T02641035  RH  014%=      5-min Rain = 0
KTAS 081956Z 19005KT 26/M04 A2981 RMK A01 T02631037  RH  014%=      5-min Rain = 0
KTAS 081957Z 20005KT 26/M04 A2981 RMK A01 T02611037  RH  014%=      5-min Rain = 0
KTAS 081958Z 16003KT 26/M04 A2981 RMK A01 T02601038  RH  014%=      5-min Rain = 0
KTAS 081959Z 19005KT 26/M04 A2981 RMK A01 T02591037  RH  014%=      5-min Rain = 0
KTAS 082000Z 23004KT 26/M04 A2981 RMK A01 T02621035  RH  014%=      5-min Rain = 0
KTAS 082001Z 22005KT 26/M04 A2981 RMK A01 T02601036  RH  014%=      5-min Rain = 0
KTAS 082002Z 17003KT 26/M04 A2981 RMK A01 T02631035  RH  014%=      5-min Rain = 0
KTAS 082003Z 16005KT 27/M03 A2981 RMK A01 T02651031  RH  014%=      5-min Rain = 0
KTAS 082004Z 22008KT 27/M04 A2981 RMK A01 T02681037  RH  013%=      5-min Rain = 0
KTAS 082005Z 20007KT 27/M04 A2981 RMK A01 T02651040  RH  013%=      5-min Rain = 0
KTAS 082006Z 18003KT 27/M04 A2981 RMK A01 T02651040  RH  013%=      5-min Rain = 0
KTAS 082007Z 17003KT 27/M04 A2981 RMK A01 T02651039  RH  013%=      5-min Rain = 0
KTAS 082008Z 18002KT 27/M04 A2981 RMK A01 T02651041  RH  013%=      5-min Rain = 0
KTAS 082009Z 22005KT 27/M04 A2981 RMK A01 T02661042  RH  013%=      5-min Rain = 0
KTAS 082010Z 23005KT 27/M05 A2981 RMK A01 T02651051  RH  012%=      5-min Rain = 0
KTAS 082011Z 21003KT 27/M05 A2981 RMK A01 T02671046  RH  012%=      5-min Rain = 0
KTAS 082012Z 32001KT 27/M05 A298 RMK A01 T02691051  RH  012%=      5-min Rain = 0
KTAS 082013Z 33004KT 27/M05 A298 RMK A01 T02691050  RH  012%=      5-min Rain = 0
KTAS 082014Z 34004KT 27/M05 A298 RMK A01 T02671051  RH  012%=      5-min Rain = 0
KTAS 082015Z 00002KT 26/M06 A298 RMK A01 T02641057  RH  012%=      5-min Rain = 0
KTAS 082016Z 21003KT 27/M05 A298 RMK A01 T02651053  RH  012%=      5-min Rain = 0
KTAS 082017Z 20005KT 27/M05 A298 RMK A01 T02651050  RH  012%=      5-min Rain = 0
KTAS 082018Z 20004KT 26/M05 A298 RMK A01 T02631052  RH  012%=      5-min Rain = 0
KTAS 082019Z 19004KT 26/M05 A298 RMK A01 T02631051  RH  012%=      5-min Rain = 0
KTAS 082020Z 16002KT 26/M05 A298 RMK A01 T02641051  RH  012%=      5-min Rain = 0
KTAS 082021Z 20003G9KT 27/M05 A298 RMK A01 T02651049  RH  012%=      5-min Rain = 0
KTAS 082022Z 21007KT 27/M05 A298 RMK A01 T02681048  RH  012%=      5-min Rain = 0
KTAS 082023Z 18005KT 27/M05 A298 RMK A01 T02661051  RH  012%=      5-min Rain = 0
KTAS 082024Z 18006KT 27/M05 A298 RMK A01 T02651052  RH  012%=      5-min Rain = 0
KTAS 082025Z 17006KT 26/M05 A298 RMK A01 T02641050  RH  012%=      5-min Rain = 0
KTAS 082026Z 18004KT 27/M05 A298 RMK A01 T02671048  RH  012%=      5-min Rain = 0
KTAS 082027Z 31005KT 27/M05 A298 RMK A01 T02691048  RH  012%=      5-min Rain = 0
KTAS 082028Z 31005G10KT 27/M05 A298 RMK A01 T02711049  RH  012%=      5-min Rain = 0
KTAS 082029Z 32006KT 27/M05 A298 RMK A01 T02701053  RH  012%=      5-min Rain = 0
KTAS 082030Z 34006KT 27/M05 A2979 RMK A01 T02661054  RH  012%=      5-min Rain = 0
KTAS 082031Z 35004KT 27/M05 A2979 RMK A01 T02651054  RH  012%=      5-min Rain = 0
KTAS 082032Z 36002KT 27/M05 A2979 RMK A01 T02661052  RH  012%=      5-min Rain = 0
KTAS 082033Z 31003KT 27/M05 A2979 RMK A01 T02681051  RH  012%=      5-min Rain = 0
KTAS 082034Z 29004KT 27/M05 A2979 RMK A01 T02711053  RH  012%=      5-min Rain = 0
KTAS 082035Z 32003KT 27/M06 A2979 RMK A01 T02671060  RH  011%=      5-min Rain = 0
KTAS 082036Z 33001KT 26/M06 A2979 RMK A01 T02631059  RH  011%=      5-min Rain = 0
KTAS 082037Z 04003KT 26/M06 A2979 RMK A01 T02631057  RH  012%=      5-min Rain = 0
KTAS 082038Z 04002KT 26/M06 A2979 RMK A01 T02621058  RH  012%=      5-min Rain = 0
KTAS 082039Z 04001KT 26/M06 A2979 RMK A01 T02641056  RH  012%=      5-min Rain = 0
KTAS 082040Z 05003KT 27/M06 A2979 RMK A01 T02651055  RH  012%=      5-min Rain = 0
KTAS 082041Z 05003KT 27/M05 A2979 RMK A01 T02671054  RH  012%=      5-min Rain = 0
KTAS 082042Z 02001KT 27/M06 A2979 RMK A01 T02661056  RH  012%=      5-min Rain = 0
KTAS 082043Z 28001KT 27/M06 A2979 RMK A01 T02671056  RH  012%=      5-min Rain = 0
KTAS 082044Z 28001KT 27/M05 A2979 RMK A01 T02681053  RH  012%=      5-min Rain = 0
KTAS 082045Z 08002KT 27/M05 A2979 RMK A01 T02731045  RH  012%=      5-min Rain = 0
KTAS 082046Z 09004KT 27/M05 A2979 RMK A01 T02741051  RH  011%=      5-min Rain = 0
KTAS 082047Z 12002KT 27/M05 A2979 RMK A01 T02741050  RH  012%=      5-min Rain = 0
KTAS 082048Z 12002KT 28/M05 A2979 RMK A01 T02761047  RH  012%=      5-min Rain = 0
KTAS 082049Z 10004KT 28/M05 A2979 RMK A01 T02761050  RH  011%=      5-min Rain = 0
KTAS 082050Z 12003KT 27/M05 A2978 RMK A01 T02731052  RH  011%=      5-min Rain = 0
KTAS 082051Z 23002KT 27/M05 A2979 RMK A01 T02741049  RH  012%=      5-min Rain = 0
KTAS 082052Z 27001KT 28/M05 A2978 RMK A01 T02751047  RH  012%=      5-min Rain = 0
KTAS 082053Z 25005KT 28/M05 A2978 RMK A01 T02771050  RH  011%=      5-min Rain = 0
KTAS 082054Z 25003KT 28/M06 A2978 RMK A01 T02761062  RH  010%=      5-min Rain = 0
KTAS 082055Z 29003KT 28/M07 A2978 RMK A01 T02751070  RH  010%=      5-min Rain = 0
KTAS 082056Z 23003KT 27/M06 A2978 RMK A01 T02741062  RH  011%=      5-min Rain = 0
KTAS 082057Z 27007KT 28/M06 A2978 RMK A01 T02751062  RH  010%=      5-min Rain = 0
KTAS 082058Z 24006KT 27/M07 A2978 RMK A01 T02741067  RH  010%=      5-min Rain = 0
KTAS 082059Z 26005KT 28/M07 A2978 RMK A01 T02751067  RH  010%=      5-min Rain = 0
KTAS 082100Z 30008KT 28/M07 A2978 RMK A01 T02761066  RH  010%=      5-min Rain = 0
KTAS 082101Z 30007KT 28/M07 A2978 RMK A01 T02791065  RH  010%=      5-min Rain = 0
KTAS 082102Z 25007KT 28/M06 A2978 RMK A01 T02841064  RH  010%=      5-min Rain = 0
KTAS 082103Z 25005KT 28/M07 A2978 RMK A01 T02791067  RH  010%=      5-min Rain = 0
KTAS 082104Z 25005KT 28/M07 A2978 RMK A01 T02781065  RH  010%=      5-min Rain = 0
KTAS 082105Z 21006KT 28/M07 A2978 RMK A01 T02771065  RH  010%=      5-min Rain = 0
KTAS 082106Z 23010KT 28/M06 A2977 RMK A01 T02781061  RH  010%=      5-min Rain = 0
KTAS 082107Z 22009KT 28/M06 A2977 RMK A01 T02791057  RH  011%=      5-min Rain = 0
KTAS 082108Z 28009KT 28/M05 A2978 RMK A01 T02821054  RH  011%=      5-min Rain = 0
KTAS 082109Z 31010KT 29/M06 A2977 RMK A01 T02861062  RH  010%=      5-min Rain = 0
KTAS 082110Z 28008KT 29/M05 A2977 RMK A01 T02881053  RH  010%=      5-min Rain = 0
KTAS 082111Z 29009KT 29/M06 A2977 RMK A01 T02911056  RH  010%=      5-min Rain = 0
KTAS 082112Z 27010KT 29/M06 A2977 RMK A01 T02931059  RH  010%=      5-min Rain = 0
KTAS 082113Z 25009KT 29/M06 A2977 RMK A01 T02891062  RH  010%=      5-min Rain = 0
KTAS 082114Z 28006KT 28/M06 A2977 RMK A01 T02841063  RH  010%=      5-min Rain = 0
KTAS 082115Z 31004KT 28/M07 A2977 RMK A01 T02811066  RH  010%=      5-min Rain = 0
KTAS 082116Z 32003KT 28/M07 A2977 RMK A01 T02781065  RH  010%=      5-min Rain = 0
KTAS 082117Z 31004KT 28/M06 A2977 RMK A01 T02811063  RH  010%=      5-min Rain = 0
KTAS 082118Z 33003KT 28/M07 A2977 RMK A01 T02831072  RH  009%=      5-min Rain = 0
KTAS 082119Z 33004G9KT 28/M08 A2977 RMK A01 T02821076  RH  009%=      5-min Rain = 0
KTAS 082120Z 28008KT 28/M08 A2977 RMK A01 T02831079  RH  009%=      5-min Rain = 0
KTAS 082121Z 26008KT 28/M08 A2977 RMK A01 T02841077  RH  009%=      5-min Rain = 0
KTAS 082122Z 24009KT 29/M07 A2976 RMK A01 T02851072  RH  009%=      5-min Rain = 0
KTAS 082123Z 23009KT 29/M08 A2976 RMK A01 T02871078  RH  009%=      5-min Rain = 0
KTAS 082124Z 26007KT 29/M08 A2976 RMK A01 T02881077  RH  009%=      5-min Rain = 0
KTAS 082125Z 27009KT 29/M07 A2976 RMK A01 T02871074  RH  009%=      5-min Rain = 0
KTAS 082126Z 27006KT 29/M08 A2976 RMK A01 T02851077  RH  009%=      5-min Rain = 0
KTAS 082127Z 25005KT 29/M08 A2976 RMK A01 T02871079  RH  009%=      5-min Rain = 0
KTAS 082128Z 29008KT 29/M08 A2976 RMK A01 T02881075  RH  009%=      5-min Rain = 0
KTAS 082129Z 28008KT 29/M08 A2976 RMK A01 T02861081  RH  008%=      5-min Rain = 0
KTAS 082130Z 28007KT 28/M08 A2976 RMK A01 T02841078  RH  009%=      5-min Rain = 0
KTAS 082131Z 29010KT 28/M07 A2976 RMK A01 T02831074  RH  009%=      5-min Rain = 0
KTAS 082132Z 30010KT 28/M08 A2976 RMK A01 T02841079  RH  009%=      5-min Rain = 0
KTAS 082133Z 30006KT 28/M08 A2976 RMK A01 T02821081  RH  009%=      5-min Rain = 0
KTAS 082134Z 26010KT 28/M08 A2975 RMK A01 T02841076  RH  009%=      5-min Rain = 0
KTAS 082135Z 26010KT 29/M08 A2975 RMK A01 T02851075  RH  009%=      5-min Rain = 0
KTAS 082136Z 26007KT 29/M07 A2975 RMK A01 T02871073  RH  009%=      5-min Rain = 0
KTAS 082137Z 26009KT 29/M07 A2975 RMK A01 T02881073  RH  009%=      5-min Rain = 0
KTAS 082138Z 27009KT 29/M08 A2975 RMK A01 T02881077  RH  009%=      5-min Rain = 0
KTAS 082139Z 27007KT 29/M08 A2975 RMK A01 T02891078  RH  009%=      5-min Rain = 0
KTAS 082140Z 27009KT 29/M07 A2975 RMK A01 T02921070  RH  009%=      5-min Rain = 0
KTAS 082141Z 26008KT 29/M08 A2975 RMK A01 T02921082  RH  008%=      5-min Rain = 0
KTAS 082142Z 25009KT 29/M08 A2975 RMK A01 T02901082  RH  008%=      5-min Rain = 0
KTAS 082143Z 26006KT 29/M08 A2975 RMK A01 T02901080  RH  008%=      5-min Rain = 0
KTAS 082144Z 26007KT 29/M08 A2975 RMK A01 T02911079  RH  008%=      5-min Rain = 0
KTAS 082145Z 24011KT 29/M08 A2975 RMK A01 T02911081  RH  008%=      5-min Rain = 0
KTAS 082146Z 25006KT 29/M08 A2975 RMK A01 T02871084  RH  008%=      5-min Rain = 0
KTAS 082147Z 23005KT 29/M09 A2974 RMK A01 T02881085  RH  008%=      5-min Rain = 0
KTAS 082148Z 26007KT 29/M08 A2974 RMK A01 T02871083  RH  008%=      5-min Rain = 0
KTAS 082149Z 26006KT 29/M08 A2974 RMK A01 T02861083  RH  008%=      5-min Rain = 0
KTAS 082150Z 26006KT 29/M08 A2974 RMK A01 T02851078  RH  009%=      5-min Rain = 0
KTAS 082151Z 30007KT 29/M08 A2974 RMK A01 T02881082  RH  008%=      5-min Rain = 0
KTAS 082152Z 30007KT 29/M08 A2974 RMK A01 T02901082  RH  008%=      5-min Rain = 0
KTAS 082153Z 29008KT 29/M08 A2974 RMK A01 T02921082  RH  008%=      5-min Rain = 0
KTAS 082154Z 28007KT 29/M08 A2974 RMK A01 T02911083  RH  008%=      5-min Rain = 0
KTAS 082155Z 27008KT 29/M08 A2974 RMK A01 T02921079  RH  008%=      5-min Rain = 0
KTAS 082156Z 27006KT 29/M08 A2974 RMK A01 T02921082  RH  008%=      5-min Rain = 0
KTAS 082157Z 28007KT 29/M08 A2974 RMK A01 T02931081  RH  008%=      5-min Rain = 0
KTAS 082158Z 29006KT 30/M08 A2974 RMK A01 T02971081  RH  008%=      5-min Rain = 0
KTAS 082159Z 30005KT 30/M08 A2974 RMK A01 T02951084  RH  008%=      5-min Rain = 0
KTAS 082200Z 26005KT 29/M09 A2973 RMK A01 T02941085  RH  008%=      5-min Rain = 0
KTAS 082201Z 26003KT 29/M09 A2973 RMK A01 T02911087  RH  008%=      5-min Rain = 0
KTAS 082202Z 24005KT 29/M08 A2973 RMK A01 T02911084  RH  008%=      5-min Rain = 0
KTAS 082203Z 29007KT 29/M08 A2973 RMK A01 T02941079  RH  008%=      5-min Rain = 0
KTAS 082204Z 30006KT 30/M08 A2973 RMK A01 T02951082  RH  008%=      5-min Rain = 0
KTAS 082205Z 30006KT 29/M08 A2973 RMK A01 T02931083  RH  008%=      5-min Rain = 0
KTAS 082206Z 29005KT 29/M08 A2973 RMK A01 T02911079  RH  008%=      5-min Rain = 0
KTAS 082207Z 28008G13KT 29/M08 A2973 RMK A01 T02911076  RH  009%=      5-min Rain = 0
KTAS 082208Z 29010KT 29/M08 A2973 RMK A01 T02911079  RH  008%=      5-min Rain = 0
KTAS 082209Z 27009KT 29/M08 A2973 RMK A01 T02941075  RH  008%=      5-min Rain = 0
KTAS 082210Z 24007KT 30/M08 A2973 RMK A01 T02961081  RH  008%=      5-min Rain = 0
KTAS 082211Z 21004KT 29/M09 A2973 RMK A01 T02911089  RH  008%=      5-min Rain = 0
KTAS 082212Z 21004KT 29/M09 A2973 RMK A01 T02881089  RH  008%=      5-min Rain = 0
KTAS 082213Z 24004KT 29/M09 A2973 RMK A01 T02861090  RH  008%=      5-min Rain = 0
KTAS 082214Z 31003KT 29/M09 A2973 RMK A01 T02861088  RH  008%=      5-min Rain = 0
KTAS 082215Z 34003KT 29/M09 A2973 RMK A01 T02851090  RH  008%=      5-min Rain = 0
KTAS 082216Z 33003KT 29/M09 A2973 RMK A01 T02881086  RH  008%=      5-min Rain = 0
KTAS 082217Z 24002KT 29/M08 A2973 RMK A01 T02931084  RH  008%=      5-min Rain = 0
KTAS 082218Z 21004KT 30/M08 A2973 RMK A01 T02961084  RH  008%=      5-min Rain = 0
KTAS 082219Z 20005KT 30/M09 A2972 RMK A01 T02951086  RH  008%=      5-min Rain = 0
KTAS 082220Z 22003KT 29/M09 A2972 RMK A01 T02921092  RH  008%=      5-min Rain = 0
KTAS 082221Z 19003KT 29/M09 A2972 RMK A01 T02921088  RH  008%=      5-min Rain = 0
KTAS 082222Z 15002KT 30/M09 A2972 RMK A01 T02951087  RH  008%=      5-min Rain = 0
KTAS 082223Z 13002KT 29/M09 A2972 RMK A01 T02941088  RH  008%=      5-min Rain = 0
KTAS 082224Z 19002KT 29/M09 A2972 RMK A01 T02941086  RH  008%=      5-min Rain = 0
KTAS 082225Z 21003KT 29/M09 A2972 RMK A01 T02941088  RH  008%=      5-min Rain = 0
KTAS 082226Z 22004KT 29/M09 A2972 RMK A01 T02921088  RH  008%=      5-min Rain = 0
KTAS 082227Z 21004KT 29/M08 A2972 RMK A01 T02921084  RH  008%=      5-min Rain = 0
KTAS 082228Z 19005KT 29/M09 A2972 RMK A01 T02921087  RH  008%=      5-min Rain = 0
KTAS 082229Z 18004KT 29/M09 A2972 RMK A01 T02901090  RH  008%=      5-min Rain = 0
KTAS 082230Z 17004KT 29/M09 A2972 RMK A01 T02891090  RH  008%=      5-min Rain = 0
KTAS 082231Z 18004KT 29/M09 A2972 RMK A01 T02901088  RH  008%=      5-min Rain = 0
KTAS 082232Z 20003KT 29/M09 A2972 RMK A01 T02901088  RH  008%=      5-min Rain = 0
KTAS 082233Z 18003KT 29/M09 A2972 RMK A01 T02901089  RH  008%=      5-min Rain = 0
KTAS 082234Z 16003KT 29/M09 A2972 RMK A01 T02901087  RH  008%=      5-min Rain = 0
KTAS 082235Z 18004KT 29/M09 A2972 RMK A01 T02911086  RH  008%=      5-min Rain = 0
KTAS 082236Z 18006G11KT 29/M08 A2972 RMK A01 T02911084  RH  008%=      5-min Rain = 0
KTAS 082237Z 19008KT 29/M08 A2972 RMK A01 T02941078  RH  008%=      5-min Rain = 0
KTAS 082238Z 16011KT 30/M08 A2972 RMK A01 T02981079  RH  008%=      5-min Rain = 0
KTAS 082239Z 17010KT 30/M08 A2972 RMK A01 T02961084  RH  008%=      5-min Rain = 0
KTAS 082240Z 16008KT 29/M08 A2972 RMK A01 T02931083  RH  008%=      5-min Rain = 0
KTAS 082241Z 15007KT 29/M08 A2972 RMK A01 T02931084  RH  008%=      5-min Rain = 0
KTAS 082242Z 16007KT 29/M08 A2972 RMK A01 T02921083  RH  008%=      5-min Rain = 0
KTAS 082243Z 15006KT 29/M08 A2972 RMK A01 T02921084  RH  008%=      5-min Rain = 0
KTAS 082244Z 13004KT 29/M08 A2972 RMK A01 T02931082  RH  008%=      5-min Rain = 0
KTAS 082245Z 14005KT 29/M08 A2972 RMK A01 T02941084  RH  008%=      5-min Rain = 0
KTAS 082246Z 15005KT 29/M08 A2972 RMK A01 T02931083  RH  008%=      5-min Rain = 0
KTAS 082247Z 16007KT 29/M08 A2972 RMK A01 T02931084  RH  008%=      5-min Rain = 0
KTAS 082248Z 17006KT 29/M09 A2972 RMK A01 T02901087  RH  008%=      5-min Rain = 0
KTAS 082249Z 21004KT 29/M09 A2972 RMK A01 T02871089  RH  008%=      5-min Rain = 0
KTAS 082250Z 18003KT 28/M09 A2972 RMK A01 T02841090  RH  008%=      5-min Rain = 0
KTAS 082251Z 16001KT 28/M09 A2972 RMK A01 T02841087  RH  008%=      5-min Rain = 0
KTAS 082252Z 15002KT 29/M08 A2972 RMK A01 T02861084  RH  008%=      5-min Rain = 0
KTAS 082253Z 18005KT 29/M08 A2972 RMK A01 T02891078  RH  009%=      5-min Rain = 0
KTAS 082254Z 19008KT 29/M08 A2972 RMK A01 T02911079  RH  008%=      5-min Rain = 0
KTAS 082255Z 19007KT 29/M08 A2972 RMK A01 T02901080  RH  008%=      5-min Rain = 0
KTAS 082256Z 16007KT 29/M08 A2972 RMK A01 T02901078  RH  009%=      5-min Rain = 0
KTAS 082257Z 16006KT 29/M08 A2972 RMK A01 T02901080  RH  008%=      5-min Rain = 0
KTAS 082258Z 17005KT 29/M08 A2972 RMK A01 T02911080  RH  008%=      5-min Rain = 0
KTAS 082259Z 17005KT 29/M08 A2971 RMK A01 T02911082  RH  008%=      5-min Rain = 0
KTAS 082300Z 16006KT 29/M08 A2971 RMK A01 T02911082  RH  008%=      5-min Rain = 0
KTAS 082301Z 14005KT 29/M08 A2971 RMK A01 T02901077  RH  009%=      5-min Rain = 0
KTAS 082302Z 11005KT 29/M08 A2971 RMK A01 T02921080  RH  008%=      5-min Rain = 0
KTAS 082303Z 13006KT 29/M08 A2971 RMK A01 T02911081  RH  008%=      5-min Rain = 0
KTAS 082304Z 15005KT 29/M08 A2971 RMK A01 T02911081  RH  008%=      5-min Rain = 0
KTAS 082305Z 13004KT 29/M09 A2971 RMK A01 T02891088  RH  008%=      5-min Rain = 0
KTAS 082306Z 12003KT 29/M09 A2971 RMK A01 T02871087  RH  008%=      5-min Rain = 0
KTAS 082307Z 17004KT 29/M08 A2971 RMK A01 T02881082  RH  008%=      5-min Rain = 0
KTAS 082308Z 21004KT 29/M08 A2971 RMK A01 T02891082  RH  008%=      5-min Rain = 0
KTAS 082309Z 21003KT 29/M08 A2971 RMK A01 T02901083  RH  008%=      5-min Rain = 0
KTAS 082310Z 19004KT 29/M08 A2971 RMK A01 T02911081  RH  008%=      5-min Rain = 0
KTAS 082311Z 21003KT 29/M09 A2971 RMK A01 T02921085  RH  008%=      5-min Rain = 0
KTAS 082312Z 23003KT 29/M09 A2971 RMK A01 T02921085  RH  008%=      5-min Rain = 0
KTAS 082313Z 22004KT 29/M09 A2971 RMK A01 T02911086  RH  008%=      5-min Rain = 0
KTAS 082314Z 22002KT 29/M09 A2971 RMK A01 T02911086  RH  008%=      5-min Rain = 0
KTAS 082315Z 23002KT 29/M08 A2971 RMK A01 T02921084  RH  008%=      5-min Rain = 0
KTAS 082316Z 23002KT 29/M09 A2971 RMK A01 T02921088  RH  008%=      5-min Rain = 0
KTAS 082317Z 22002KT 29/M09 A2971 RMK A01 T02921085  RH  008%=      5-min Rain = 0
KTAS 082318Z 26003KT 29/M09 A2971 RMK A01 T02941086  RH  008%=      5-min Rain = 0
KTAS 082319Z 29003KT 29/M09 A2971 RMK A01 T02941086  RH  008%=      5-min Rain = 0
KTAS 082320Z 27003KT 30/M08 A2971 RMK A01 T02951083  RH  008%=      5-min Rain = 0
KTAS 082321Z 18005KT 30/M08 A2971 RMK A01 T02961084  RH  008%=      5-min Rain = 0
KTAS 082322Z 18004KT 29/M09 A2971 RMK A01 T02941086  RH  008%=      5-min Rain = 0
KTAS 082323Z 17004G9KT 29/M09 A2971 RMK A01 T02921087  RH  008%=      5-min Rain = 0
KTAS 082324Z 16008KT 29/M08 A2971 RMK A01 T02911082  RH  008%=      5-min Rain = 0
KTAS 082325Z 16005KT 29/M09 A2971 RMK A01 T02911087  RH  008%=      5-min Rain = 0
KTAS 082326Z 15002KT 29/M09 A2971 RMK A01 T02891092  RH  008%=      5-min Rain = 0
KTAS 082327Z 12003KT 29/M09 A2971 RMK A01 T02881090  RH  008%=      5-min Rain = 0
KTAS 082328Z 13006KT 29/M09 A297 RMK A01 T02881085  RH  008%=      5-min Rain = 0
KTAS 082329Z 13006KT 29/M08 A297 RMK A01 T02881082  RH  008%=      5-min Rain = 0
KTAS 082330Z 12007KT 29/M08 A297 RMK A01 T02891081  RH  008%=      5-min Rain = 0
KTAS 082331Z 13008KT 29/M09 A297 RMK A01 T02881085  RH  008%=      5-min Rain = 0
KTAS 082332Z 13008KT 29/M09 A297 RMK A01 T02861085  RH  008%=      5-min Rain = 0
KTAS 082333Z 12006KT 29/M08 A297 RMK A01 T02861084  RH  008%=      5-min Rain = 0
KTAS 082334Z 11006KT 29/M08 A297 RMK A01 T02861084  RH  008%=      5-min Rain = 0
KTAS 082335Z 12004KT 29/M08 A297 RMK A01 T02861084  RH  008%=      5-min Rain = 0
KTAS 082336Z 09004KT 29/M09 A297 RMK A01 T02871086  RH  008%=      5-min Rain = 0
KTAS 082337Z 07004KT 29/M09 A297 RMK A01 T02871087  RH  008%=      5-min Rain = 0
KTAS 082338Z 08003KT 29/M09 A297 RMK A01 T02881087  RH  008%=      5-min Rain = 0
KTAS 082339Z 14003KT 29/M09 A297 RMK A01 T02881086  RH  008%=      5-min Rain = 0
KTAS 082340Z 14002KT 29/M09 A2971 RMK A01 T02881086  RH  008%=      5-min Rain = 0
KTAS 082341Z 13004KT 29/M08 A297 RMK A01 T02891084  RH  008%=      5-min Rain = 0
KTAS 082342Z 11006KT 29/M08 A297 RMK A01 T02891083  RH  008%=      5-min Rain = 0
KTAS 082343Z 09004KT 29/M08 A297 RMK A01 T02881082  RH  008%=      5-min Rain = 0
KTAS 082344Z 30003KT 29/M08 A297 RMK A01 T02881084  RH  008%=      5-min Rain = 0
KTAS 082345Z 29006KT 29/M08 A297 RMK A01 T02881081  RH  008%=      5-min Rain = 0
KTAS 082346Z 28002KT 29/M08 A297 RMK A01 T02871081  RH  008%=      5-min Rain = 0
KTAS 082347Z 21003KT 29/M09 A297 RMK A01 T02861086  RH  008%=      5-min Rain = 0
KTAS 082348Z 22004KT 29/M08 A297 RMK A01 T02861078  RH  009%=      5-min Rain = 0
KTAS 082349Z 21003KT 29/M08 A297 RMK A01 T02861079  RH  009%=      5-min Rain = 0
KTAS 082350Z 24006KT 29/M08 A297 RMK A01 T02861075  RH  009%=      5-min Rain = 0
KTAS 082351Z 26005KT 29/M07 A297 RMK A01 T02851065  RH  010%=      5-min Rain = 0
KTAS 082352Z 28004KT 29/M06 A297 RMK A01 T02851060  RH  010%=      5-min Rain = 0
KTAS 082353Z 28005KT 28/M06 A297 RMK A01 T02841058  RH  010%=      5-min Rain = 0
KTAS 082354Z 27005KT 28/M05 A297 RMK A01 T02841049  RH  011%=      5-min Rain = 0
KTAS 082355Z 27005KT 28/M05 A297 RMK A01 T02841046  RH  011%=      5-min Rain = 0
KTAS 082356Z 27009KT 28/M05 A297 RMK A01 T02831053  RH  011%=      5-min Rain = 0
KTAS 082357Z 28012G17KT 28/M07 A297 RMK A01 T02841070  RH  009%=      5-min Rain = 0
KTAS 082358Z 27011G16KT 28/M07 A297 RMK A01 T02841074  RH  009%=      5-min Rain = 0
KTAS 082359Z 26013KT 28/M07 A297 RMK A01 T02831073  RH  009%=      5-min Rain = 0
KTAS 090000Z 26013KT 28/M06 A297 RMK A01 T02811064  RH  010%=      5-min Rain = 0
KTAS 090001Z 26012KT 28/M06 A297 RMK A01 T02801057  RH  011%=      5-min Rain = 0
KTAS 090002Z 26012KT 28/M07 A297 RMK A01 T02801067  RH  010%=      5-min Rain = 0
KTAS 090003Z 25012KT 28/M07 A297 RMK A01 T02821071  RH  009%=      5-min Rain = 0
KTAS 090004Z 25012KT 28/M07 A297 RMK A01 T02841072  RH  009%=      5-min Rain = 0
KTAS 090005Z 25011KT 29/M07 A297 RMK A01 T02861070  RH  009%=      5-min Rain = 0
KTAS 090006Z 25014KT 29/M08 A297 RMK A01 T02871077  RH  009%=      5-min Rain = 0
KTAS 090007Z 25013KT 29/M08 A2969 RMK A01 T02891081  RH  008%=      5-min Rain = 0
KTAS 090008Z 24011KT 29/M08 A2969 RMK A01 T02901078  RH  009%=      5-min Rain = 0
KTAS 090009Z 24014KT 29/M08 A2969 RMK A01 T02901076  RH  009%=      5-min Rain = 0
KTAS 090010Z 24014KT 29/M08 A2969 RMK A01 T02901079  RH  008%=      5-min Rain = 0
KTAS 090011Z 24015KT 29/M08 A2969 RMK A01 T02891082  RH  008%=      5-min Rain = 0
KTAS 090012Z 25013KT 29/M08 A2969 RMK A01 T02891079  RH  008%=      5-min Rain = 0
KTAS 090013Z 25011KT 29/M08 A2969 RMK A01 T02891075  RH  009%=      5-min Rain = 0
KTAS 090014Z 25013KT 29/M08 A2969 RMK A01 T02881076  RH  009%=      5-min Rain = 0
KTAS 090015Z 25011KT 29/M08 A2969 RMK A01 T02871078  RH  009%=      5-min Rain = 0
KTAS 090016Z 25012KT 29/M08 A2969 RMK A01 T02861078  RH  009%=      5-min Rain = 0
KTAS 090017Z 25010KT 29/M08 A2969 RMK A01 T02851076  RH  009%=      5-min Rain = 0
KTAS 090018Z 25008KT 28/M07 A2969 RMK A01 T02841072  RH  009%=      5-min Rain = 0
KTAS 090019Z 26007KT 28/M07 A2969 RMK A01 T02831067  RH  010%=      5-min Rain = 0
KTAS 090020Z 24009KT 28/M07 A2969 RMK A01 T02821065  RH  010%=      5-min Rain = 0
KTAS 090021Z 25012G19KT 28/M06 A2969 RMK A01 T02811062  RH  010%=      5-min Rain = 0
KTAS 090022Z 25016KT 28/M08 A2969 RMK A01 T02821078  RH  009%=      5-min Rain = 0
KTAS 090023Z 25012KT 28/M09 A2969 RMK A01 T02841085  RH  008%=      5-min Rain = 0
KTAS 090024Z 23012KT 28/M08 A2969 RMK A01 T02841083  RH  008%=      5-min Rain = 0
KTAS 090025Z 24015KT 28/M09 A2969 RMK A01 T02841087  RH  008%=      5-min Rain = 0
KTAS 090026Z 24014KT 28/M09 A2969 RMK A01 T02831086  RH  008%=      5-min Rain = 0
KTAS 090027Z 24011KT 28/M09 A2969 RMK A01 T02821085  RH  008%=      5-min Rain = 0
KTAS 090028Z 24012KT 28/M09 A2969 RMK A01 T02811085  RH  008%=      5-min Rain = 0
KTAS 090029Z 24015KT 28/M09 A2969 RMK A01 T02811087  RH  008%=      5-min Rain = 0
KTAS 090030Z 23013KT 28/M09 A2969 RMK A01 T02801090  RH  008%=      5-min Rain = 0
KTAS 090031Z 24013KT 28/M09 A2969 RMK A01 T02801090  RH  008%=      5-min Rain = 0
KTAS 090032Z 23012KT 28/M09 A2969 RMK A01 T02801089  RH  008%=      5-min Rain = 0
KTAS 090033Z 23014KT 28/M09 A2969 RMK A01 T02801089  RH  008%=      5-min Rain = 0
KTAS 090034Z 23014KT 28/M09 A2969 RMK A01 T02801092  RH  008%=      5-min Rain = 0
KTAS 090035Z 23015KT 28/M09 A2969 RMK A01 T02801094  RH  008%=      5-min Rain = 0
KTAS 090036Z 23016KT 28/M10 A2969 RMK A01 T02801095  RH  008%=      5-min Rain = 0
KTAS 090037Z 23014KT 28/M09 A2969 RMK A01 T02801094  RH  008%=      5-min Rain = 0
KTAS 090038Z 23013KT 28/M09 A2969 RMK A01 T02791091  RH  008%=      5-min Rain = 0
KTAS 090039Z 22013KT 28/M09 A2969 RMK A01 T02781090  RH  008%=      5-min Rain = 0
KTAS 090040Z 22013KT 28/M09 A2969 RMK A01 T02771087  RH  009%=      5-min Rain = 0
KTAS 090041Z 22012KT 28/M09 A2969 RMK A01 T02761087  RH  009%=      5-min Rain = 0
KTAS 090042Z 22011KT 28/M09 A2969 RMK A01 T02751089  RH  009%=      5-min Rain = 0
KTAS 090043Z 22011KT 28/M09 A2969 RMK A01 T02751090  RH  008%=      5-min Rain = 0
KTAS 090044Z 22011KT 27/M09 A2969 RMK A01 T02741091  RH  008%=      5-min Rain = 0
KTAS 090045Z 22012KT 27/M09 A2969 RMK A01 T02741092  RH  008%=      5-min Rain = 0
KTAS 090046Z 22011KT 27/M09 A2969 RMK A01 T02741092  RH  008%=      5-min Rain = 0
KTAS 090047Z 22011KT 27/M09 A2969 RMK A01 T02731089  RH  009%=      5-min Rain = 0
KTAS 090048Z 22010KT 27/M09 A2969 RMK A01 T02711086  RH  009%=      5-min Rain = 0
KTAS 090049Z 22011KT 27/M09 A2969 RMK A01 T02701086  RH  009%=      5-min Rain = 0
KTAS 090050Z 23012KT 27/M09 A2969 RMK A01 T02691087  RH  009%=      5-min Rain = 0
KTAS 090051Z 23010KT 27/M09 A2969 RMK A01 T02681086  RH  009%=      5-min Rain = 0
KTAS 090052Z 23010KT 27/M09 A2969 RMK A01 T02671086  RH  009%=      5-min Rain = 0
KTAS 090053Z 23010KT 27/M09 A2969 RMK A01 T02671087  RH  009%=      5-min Rain = 0
KTAS 090054Z 23010KT 27/M09 A2969 RMK A01 T02671087  RH  009%=      5-min Rain = 0
KTAS 090055Z 23009KT 27/M09 A2969 RMK A01 T02661089  RH  009%=      5-min Rain = 0
KTAS 090056Z 23009KT 27/M09 A2969 RMK A01 T02651088  RH  009%=      5-min Rain = 0
KTAS 090057Z 24010KT 26/M09 A2969 RMK A01 T02641088  RH  009%=      5-min Rain = 0
KTAS 090058Z 24010KT 26/M09 A2969 RMK A01 T02641090  RH  009%=      5-min Rain = 0
KTAS 090059Z 24011KT 26/M09 A2969 RMK A01 T02641089  RH  009%=      5-min Rain = 0
KTAS 090100Z 24011KT 26/M09 A2969 RMK A01 T02631090  RH  009%=      5-min Rain = 0
KTAS 090101Z 24011KT 26/M09 A2969 RMK A01 T02611091  RH  009%=      5-min Rain = 0
KTAS 090102Z 24011KT 26/M09 A2969 RMK A01 T02611092  RH  009%=      5-min Rain = 0
KTAS 090103Z 24010KT 26/M09 A2969 RMK A01 T02611091  RH  009%=      5-min Rain = 0
KTAS 090104Z 24011KT 26/M09 A2969 RMK A01 T02601092  RH  009%=      5-min Rain = 0
KTAS 090105Z 24011KT 26/M09 A2969 RMK A01 T02601092  RH  009%=      5-min Rain = 0
KTAS 090106Z 23011KT 26/M09 A2969 RMK A01 T02601093  RH  009%=      5-min Rain = 0
KTAS 090107Z 23010KT 26/M09 A2969 RMK A01 T02601092  RH  009%=      5-min Rain = 0
KTAS 090108Z 23010KT 26/M09 A2969 RMK A01 T02581091  RH  009%=      5-min Rain = 0
KTAS 090109Z 23010KT 26/M09 A2969 RMK A01 T02571092  RH  009%=      5-min Rain = 0
KTAS 090110Z 23010KT 26/M09 A2969 RMK A01 T02551092  RH  009%=      5-min Rain = 0
KTAS 090111Z 23010KT 25/M09 A2969 RMK A01 T02541092  RH  009%=      5-min Rain = 0
KTAS 090112Z 23009KT 25/M09 A2969 RMK A01 T02521093  RH  009%=      5-min Rain = 0
KTAS 090113Z 23010KT 25/M09 A2969 RMK A01 T02521094  RH  009%=      5-min Rain = 0
KTAS 090114Z 23009KT 25/M09 A2969 RMK A01 T02511094  RH  009%=      5-min Rain = 0
KTAS 090115Z 23009KT 25/M09 A2969 RMK A01 T02491094  RH  010%=      5-min Rain = 0
KTAS 090116Z 23010KT 25/M09 A2969 RMK A01 T02471094  RH  010%=      5-min Rain = 0
KTAS 090117Z 23010KT 25/M10 A2969 RMK A01 T02461095  RH  010%=      5-min Rain = 0
KTAS 090118Z 23011KT 25/M10 A2969 RMK A01 T02461096  RH  010%=      5-min Rain = 0
KTAS 090119Z 23011KT 25/M10 A2969 RMK A01 T02471097  RH  009%=      5-min Rain = 0
KTAS 090120Z 23010KT 25/M10 A2969 RMK A01 T02481097  RH  009%=      5-min Rain = 0
KTAS 090121Z 23010KT 25/M10 A2969 RMK A01 T02471096  RH  009%=      5-min Rain = 0
KTAS 090122Z 23009KT 25/M10 A2969 RMK A01 T02451096  RH  010%=      5-min Rain = 0
KTAS 090123Z 22009KT 24/M10 A2969 RMK A01 T02421095  RH  010%=      5-min Rain = 0
KTAS 090124Z 22009KT 24/M09 A2969 RMK A01 T02391091  RH  010%=      5-min Rain = 0
KTAS 090125Z 22009KT 24/M09 A2969 RMK A01 T02361088  RH  011%=      5-min Rain = 0
KTAS 090126Z 22010KT 23/M09 A2969 RMK A01 T02341088  RH  011%=      5-min Rain = 0
KTAS 090127Z 22009KT 23/M09 A2969 RMK A01 T02321090  RH  011%=      5-min Rain = 0
KTAS 090128Z 22009KT 23/M09 A2969 RMK A01 T02311092  RH  011%=      5-min Rain = 0
KTAS 090129Z 22009KT 23/M09 A2969 RMK A01 T02301093  RH  011%=      5-min Rain = 0
KTAS 090130Z 22009KT 23/M09 A2969 RMK A01 T02291094  RH  011%=      5-min Rain = 0
KTAS 090131Z 21009KT 23/M10 A2969 RMK A01 T02281095  RH  011%=      5-min Rain = 0
KTAS 090132Z 21008KT 23/M10 A2969 RMK A01 T02271097  RH  011%=      5-min Rain = 0
KTAS 090133Z 21008KT 23/M10 A2969 RMK A01 T02261097  RH  011%=      5-min Rain = 0
KTAS 090134Z 21008KT 23/M10 A2969 RMK A01 T02251097  RH  011%=      5-min Rain = 0
KTAS 090135Z 21009KT 23/M10 A2969 RMK A01 T02251095  RH  011%=      5-min Rain = 0
KTAS 090136Z 21009KT 23/M10 A2969 RMK A01 T02251095  RH  011%=      5-min Rain = 0
KTAS 090137Z 21008KT 23/M09 A2969 RMK A01 T02251094  RH  011%=      5-min Rain = 0
KTAS 090138Z 21008KT 23/M09 A2969 RMK A01 T02251093  RH  011%=      5-min Rain = 0
KTAS 090139Z 21008KT 22/M09 A2969 RMK A01 T02241093  RH  011%=      5-min Rain = 0
KTAS 090140Z 21009KT 22/M09 A2969 RMK A01 T02241093  RH  011%=      5-min Rain = 0
KTAS 090141Z 21009KT 22/M09 A2969 RMK A01 T02241094  RH  011%=      5-min Rain = 0
KTAS 090142Z 21009KT 22/M09 A2969 RMK A01 T02241093  RH  011%=      5-min Rain = 0
KTAS 090143Z 21009KT 23/M09 A2969 RMK A01 T02251094  RH  011%=      5-min Rain = 0
KTAS 090144Z 21009KT 23/M09 A2969 RMK A01 T02261094  RH  011%=      5-min Rain = 0
KTAS 090145Z 21008KT 23/M10 A2969 RMK A01 T02251095  RH  011%=      5-min Rain = 0
KTAS 090146Z 21008KT 22/M09 A2969 RMK A01 T02241094  RH  011%=      5-min Rain = 0
KTAS 090147Z 21008KT 22/M09 A2969 RMK A01 T02231094  RH  011%=      5-min Rain = 0
KTAS 090148Z 21008KT 22/M09 A2969 RMK A01 T02221094  RH  011%=      5-min Rain = 0
KTAS 090149Z 21008KT 22/M10 A2969 RMK A01 T02211095  RH  011%=      5-min Rain = 0
KTAS 090150Z 20007KT 22/M10 A2969 RMK A01 T02191096  RH  011%=      5-min Rain = 0
KTAS 090151Z 21007KT 22/M10 A2969 RMK A01 T02181096  RH  011%=      5-min Rain = 0
KTAS 090152Z 21007KT 22/M10 A2969 RMK A01 T02161095  RH  012%=      5-min Rain = 0
KTAS 090153Z 21007KT 21/M10 A2969 RMK A01 T02141095  RH  012%=      5-min Rain = 0
KTAS 090154Z 21007KT 21/M10 A2969 RMK A01 T02121095  RH  012%=      5-min Rain = 0
KTAS 090155Z 21007KT 21/M10 A2969 RMK A01 T02101095  RH  012%=      5-min Rain = 0
KTAS 090156Z 21007KT 21/M09 A2969 RMK A01 T02091093  RH  012%=      5-min Rain = 0
KTAS 090157Z 21007KT 21/M09 A2969 RMK A01 T02081093  RH  012%=      5-min Rain = 0
KTAS 090158Z 20007KT 21/M09 A2969 RMK A01 T02081091  RH  013%=      5-min Rain = 0
KTAS 090159Z 20007KT 21/M09 A2969 RMK A01 T02071091  RH  013%=      5-min Rain = 0
KTAS 090200Z 20008KT 21/M09 A2969 RMK A01 T02061092  RH  013%=      5-min Rain = 0
KTAS 090201Z 20008KT 21/M09 A2968 RMK A01 T02051093  RH  013%=      5-min Rain = 0
KTAS 090202Z 20008KT 20/M09 A2968 RMK A01 T02041091  RH  013%=      5-min Rain = 0
KTAS 090203Z 20008KT 20/M09 A2968 RMK A01 T02041089  RH  013%=      5-min Rain = 0
KTAS 090204Z 20008KT 21/M09 A2968 RMK A01 T02051087  RH  013%=      5-min Rain = 0
KTAS 090205Z 20009KT 20/M09 A2968 RMK A01 T02041087  RH  013%=      5-min Rain = 0
KTAS 090206Z 20008KT 21/M09 A2968 RMK A01 T02051087  RH  013%=      5-min Rain = 0
KTAS 090207Z 20008KT 21/M09 A2968 RMK A01 T02051088  RH  013%=      5-min Rain = 0
KTAS 090208Z 21008KT 21/M09 A2968 RMK A01 T02061088  RH  013%=      5-min Rain = 0
KTAS 090209Z 21008KT 21/M09 A2968 RMK A01 T02061089  RH  013%=      5-min Rain = 0
KTAS 090210Z 21009KT 21/M09 A2968 RMK A01 T02071088  RH  013%=      5-min Rain = 0
KTAS 090211Z 21008KT 21/M09 A2968 RMK A01 T02081089  RH  013%=      5-min Rain = 0
KTAS 090212Z 21008KT 21/M09 A2968 RMK A01 T02091089  RH  013%=      5-min Rain = 0
KTAS 090213Z 21008KT 21/M09 A2968 RMK A01 T02091089  RH  013%=      5-min Rain = 0
KTAS 090214Z 21008KT 21/M09 A2968 RMK A01 T02091090  RH  013%=      5-min Rain = 0
KTAS 090215Z 21008KT 21/M09 A2968 RMK A01 T02091089  RH  013%=      5-min Rain = 0
KTAS 090216Z 21008KT 21/M09 A2968 RMK A01 T02091089  RH  013%=      5-min Rain = 0
KTAS 090217Z 21008KT 21/M09 A2968 RMK A01 T02081090  RH  013%=      5-min Rain = 0
KTAS 090218Z 20008KT 21/M09 A2968 RMK A01 T02081090  RH  013%=      5-min Rain = 0
KTAS 090219Z 21008KT 21/M09 A2968 RMK A01 T02071090  RH  013%=      5-min Rain = 0
KTAS 090220Z 21008KT 21/M09 A2968 RMK A01 T02081090  RH  013%=      5-min Rain = 0
KTAS 090221Z 21009KT 21/M09 A2968 RMK A01 T02091091  RH  012%=      5-min Rain = 0
KTAS 090222Z 21009KT 21/M09 A2968 RMK A01 T02131090  RH  012%=      5-min Rain = 0
KTAS 090223Z 21009KT 22/M09 A2968 RMK A01 T02151089  RH  012%=      5-min Rain = 0
KTAS 090224Z 21009KT 22/M09 A2968 RMK A01 T02161089  RH  012%=      5-min Rain = 0
KTAS 090225Z 21010KT 22/M09 A2968 RMK A01 T02171088  RH  012%=      5-min Rain = 0
KTAS 090226Z 21010KT 22/M09 A2968 RMK A01 T02171087  RH  012%=      5-min Rain = 0
KTAS 090227Z 21010KT 22/M09 A2968 RMK A01 T02171086  RH  012%=      5-min Rain = 0
KTAS 090228Z 21010KT 22/M09 A2968 RMK A01 T02161088  RH  012%=      5-min Rain = 0
KTAS 090229Z 21010KT 22/M09 A2968 RMK A01 T02151089  RH  012%=      5-min Rain = 0
KTAS 090230Z 21010KT 21/M09 A2968 RMK A01 T02141090  RH  012%=      5-min Rain = 0
KTAS 090231Z 21010KT 21/M09 A2968 RMK A01 T02121090  RH  012%=      5-min Rain = 0
KTAS 090232Z 21010KT 21/M09 A2968 RMK A01 T02121090  RH  012%=      5-min Rain = 0
KTAS 090233Z 21010KT 21/M09 A2968 RMK A01 T02111091  RH  012%=      5-min Rain = 0
KTAS 090234Z 21009KT 21/M09 A2968 RMK A01 T02111090  RH  012%=      5-min Rain = 0
KTAS 090235Z 21008KT 21/M09 A2968 RMK A01 T02101090  RH  012%=      5-min Rain = 0
KTAS 090236Z 21008KT 21/M09 A2968 RMK A01 T02081090  RH  013%=      5-min Rain = 0
KTAS 090237Z 21007KT 21/M09 A2968 RMK A01 T02061089  RH  013%=      5-min Rain = 0
KTAS 090238Z 20007KT 20/M09 A2968 RMK A01 T02031089  RH  013%=      5-min Rain = 0
KTAS 090239Z 20007KT 20/M09 A2969 RMK A01 T02001087  RH  014%=      5-min Rain = 0
KTAS 090240Z 20007KT 20/M09 A2969 RMK A01 T01961085  RH  014%=      5-min Rain = 0
KTAS 090241Z 20007KT 19/M09 A2969 RMK A01 T01921085  RH  014%=      5-min Rain = 0
KTAS 090242Z 20007KT 19/M08 A2969 RMK A01 T01891084  RH  015%=      5-min Rain = 0
KTAS 090243Z 20007KT 19/M08 A2969 RMK A01 T01871084  RH  015%=      5-min Rain = 0
KTAS 090244Z 20007KT 19/M08 A2969 RMK A01 T01861083  RH  015%=      5-min Rain = 0
KTAS 090245Z 20007KT 19/M08 A2969 RMK A01 T01861081  RH  016%=      5-min Rain = 0
KTAS 090246Z 21007KT 19/M08 A2969 RMK A01 T01861081  RH  016%=      5-min Rain = 0
KTAS 090247Z 21006KT 19/M08 A2969 RMK A01 T01861081  RH  015%=      5-min Rain = 0
KTAS 090248Z 21006KT 19/M08 A2969 RMK A01 T01851083  RH  015%=      5-min Rain = 0
KTAS 090249Z 21006KT 19/M08 A2969 RMK A01 T01861083  RH  015%=      5-min Rain = 0
KTAS 090250Z 20007KT 19/M08 A2969 RMK A01 T01871084  RH  015%=      5-min Rain = 0
KTAS 090251Z 20007KT 19/M08 A2969 RMK A01 T01861084  RH  015%=      5-min Rain = 0
KTAS 090252Z 20006KT 19/M09 A2969 RMK A01 T01861085  RH  015%=      5-min Rain = 0
KTAS 090253Z 20007KT 19/M09 A2969 RMK A01 T01851085  RH  015%=      5-min Rain = 0
KTAS 090254Z 19007KT 19/M09 A2969 RMK A01 T01851085  RH  015%=      5-min Rain = 0
KTAS 090255Z 20007KT 19/M09 A2969 RMK A01 T01861085  RH  015%=      5-min Rain = 0
KTAS 090256Z 19007KT 19/M09 A2969 RMK A01 T01861085  RH  015%=      5-min Rain = 0
KTAS 090257Z 19007KT 19/M08 A2969 RMK A01 T01861084  RH  015%=      5-min Rain = 0
KTAS 090258Z 19007KT 19/M08 A2969 RMK A01 T01861083  RH  015%=      5-min Rain = 0
KTAS 090259Z 19007KT 19/M09 A2969 RMK A01 T01851085  RH  015%=      5-min Rain = 0
KTAS 090300Z 20008KT 18/M09 A2969 RMK A01 T01841090  RH  015%=      5-min Rain = 0
KTAS 090301Z 20008KT 18/M09 A2969 RMK A01 T01831093  RH  014%=      5-min Rain = 0
KTAS 090302Z 20008KT 18/M09 A2969 RMK A01 T01811094  RH  014%=      5-min Rain = 0
KTAS 090303Z 20008KT 18/M10 A2969 RMK A01 T01791095  RH  014%=      5-min Rain = 0
KTAS 090304Z 20008KT 18/M10 A2969 RMK A01 T01771096  RH  015%=      5-min Rain = 0
KTAS 090305Z 20007KT 18/M10 A2969 RMK A01 T01761097  RH  015%=      5-min Rain = 0
KTAS 090306Z 21007KT 18/M10 A2969 RMK A01 T01761097  RH  015%=      5-min Rain = 0
KTAS 090307Z 21007KT 18/M10 A2969 RMK A01 T01771096  RH  015%=      5-min Rain = 0
KTAS 090308Z 20007KT 18/M10 A2969 RMK A01 T01771095  RH  015%=      5-min Rain = 0
KTAS 090309Z 20007KT 18/M10 A2969 RMK A01 T01771095  RH  015%=      5-min Rain = 0
KTAS 090310Z 21007KT 18/M09 A2969 RMK A01 T01771094  RH  015%=      5-min Rain = 0
KTAS 090311Z 21007KT 18/M09 A2969 RMK A01 T01771093  RH  015%=      5-min Rain = 0
KTAS 090312Z 21006KT 18/M09 A2969 RMK A01 T01771093  RH  015%=      5-min Rain = 0
KTAS 090313Z 21005KT 18/M09 A2969 RMK A01 T01761092  RH  015%=      5-min Rain = 0
KTAS 090314Z 21006KT 18/M09 A2969 RMK A01 T01751089  RH  016%=      5-min Rain = 0
KTAS 090315Z 21006KT 18/M08 A2969 RMK A01 T01761084  RH  016%=      5-min Rain = 0
KTAS 090316Z 21006KT 18/M08 A2969 RMK A01 T01761081  RH  017%=      5-min Rain = 0
KTAS 090317Z 21006KT 18/M08 A2969 RMK A01 T01751078  RH  017%=      5-min Rain = 0
KTAS 090318Z 21006KT 18/M08 A2969 RMK A01 T01751076  RH  017%=      5-min Rain = 0
KTAS 090319Z 21006KT 17/M08 A2969 RMK A01 T01731075  RH  018%=      5-min Rain = 0
KTAS 090320Z 21006KT 17/M07 A2969 RMK A01 T01711073  RH  018%=      5-min Rain = 0
KTAS 090321Z 21007KT 17/M07 A2969 RMK A01 T01691071  RH  019%=      5-min Rain = 0
KTAS 090322Z 21007KT 17/M07 A2969 RMK A01 T01681070  RH  019%=      5-min Rain = 0
KTAS 090323Z 21007KT 17/M07 A2969 RMK A01 T01671071  RH  019%=      5-min Rain = 0
KTAS 090324Z 21007KT 17/M07 A2969 RMK A01 T01671071  RH  019%=      5-min Rain = 0
KTAS 090325Z 21007KT 17/M07 A2969 RMK A01 T01661071  RH  019%=      5-min Rain = 0
KTAS 090326Z 21007KT 17/M07 A2969 RMK A01 T01651072  RH  019%=      5-min Rain = 0
KTAS 090327Z 21007KT 17/M07 A2969 RMK A01 T01651073  RH  019%=      5-min Rain = 0
KTAS 090328Z 21007KT 16/M07 A2969 RMK A01 T01641073  RH  019%=      5-min Rain = 0
KTAS 090329Z 21007KT 16/M07 A2969 RMK A01 T01641073  RH  019%=      5-min Rain = 0
KTAS 090330Z 21007KT 16/M07 A2969 RMK A01 T01641074  RH  019%=      5-min Rain = 0
KTAS 090331Z 21007KT 17/M08 A2969 RMK A01 T01651076  RH  018%=      5-min Rain = 0
KTAS 090332Z 20007KT 17/M08 A2969 RMK A01 T01651080  RH  018%=      5-min Rain = 0
KTAS 090333Z 20008KT 17/M08 A2969 RMK A01 T01651083  RH  017%=      5-min Rain = 0
KTAS 090334Z 20008KT 17/M09 A2969 RMK A01 T01661085  RH  017%=      5-min Rain = 0
KTAS 090335Z 20008KT 17/M09 A2969 RMK A01 T01661085  RH  017%=      5-min Rain = 0
KTAS 090336Z 20008KT 17/M08 A2969 RMK A01 T01671084  RH  017%=      5-min Rain = 0
KTAS 090337Z 20008KT 17/M08 A2969 RMK A01 T01671084  RH  017%=      5-min Rain = 0
KTAS 090338Z 20008KT 17/M08 A2969 RMK A01 T01671084  RH  017%=      5-min Rain = 0
KTAS 090339Z 20007KT 17/M08 A2969 RMK A01 T01661084  RH  017%=      5-min Rain = 0
KTAS 090340Z 20007KT 17/M08 A2969 RMK A01 T01651082  RH  018%=      5-min Rain = 0
KTAS 090341Z 19007KT 17/M08 A2969 RMK A01 T01651080  RH  018%=      5-min Rain = 0
KTAS 090342Z 19006KT 16/M08 A2969 RMK A01 T01641076  RH  019%=      5-min Rain = 0
KTAS 090343Z 19007KT 16/M08 A2969 RMK A01 T01631075  RH  019%=      5-min Rain = 0
KTAS 090344Z 19006KT 16/M08 A2969 RMK A01 T01631077  RH  019%=      5-min Rain = 0
KTAS 090345Z 19006KT 16/M08 A2969 RMK A01 T01641079  RH  018%=      5-min Rain = 0
KTAS 090346Z 19006KT 16/M08 A2969 RMK A01 T01641081  RH  018%=      5-min Rain = 0
KTAS 090347Z 18006KT 17/M08 A2969 RMK A01 T01651082  RH  018%=      5-min Rain = 0
KTAS 090348Z 18006KT 17/M08 A2969 RMK A01 T01661083  RH  017%=      5-min Rain = 0
KTAS 090349Z 18005KT 17/M09 A2969 RMK A01 T01671087  RH  017%=      5-min Rain = 0
KTAS 090350Z 17005KT 17/M09 A2969 RMK A01 T01681091  RH  016%=      5-min Rain = 0
KTAS 090351Z 14004KT 17/M09 A2969 RMK A01 T01681086  RH  017%=      5-min Rain = 0
KTAS 090352Z 09003KT 17/M08 A2969 RMK A01 T01671084  RH  017%=      5-min Rain = 0
KTAS 090353Z 08004KT 17/M09 A2969 RMK A01 T01691089  RH  016%=      5-min Rain = 0
KTAS 090354Z 08006KT 17/M09 A2969 RMK A01 T01671092  RH  016%=      5-min Rain = 0
KTAS 090355Z 09006KT 17/M09 A2969 RMK A01 T01661094  RH  016%=      5-min Rain = 0
KTAS 090356Z 10006KT 17/M10 A2969 RMK A01 T01661095  RH  016%=      5-min Rain = 0
KTAS 090357Z 09007KT 17/M09 A2969 RMK A01 T01651094  RH  016%=      5-min Rain = 0
KTAS 090358Z 09007KT 16/M10 A2969 RMK A01 T01641096  RH  016%=      5-min Rain = 0
KTAS 090359Z 09007KT 17/M10 A2968 RMK A01 T01651095  RH  016%=      5-min Rain = 0
KTAS 090400Z 10006KT 17/M10 A2969 RMK A01 T01651095  RH  016%=      5-min Rain = 0
KTAS 090401Z 10008KT 17/M10 A2969 RMK A01 T01651095  RH  016%=      5-min Rain = 0
KTAS 090402Z 11007KT 17/M10 A2969 RMK A01 T01671096  RH  016%=      5-min Rain = 0
KTAS 090403Z 11007KT 17/M10 A2969 RMK A01 T01671095  RH  016%=      5-min Rain = 0
KTAS 090404Z 12006KT 17/M10 A2969 RMK A01 T01681096  RH  016%=      5-min Rain = 0
KTAS 090405Z 13005KT 17/M10 A2969 RMK A01 T01691096  RH  015%=      5-min Rain = 0
KTAS 090406Z 13005KT 17/M10 A2968 RMK A01 T01691096  RH  015%=      5-min Rain = 0
KTAS 090407Z 12006KT 17/M10 A2968 RMK A01 T01691097  RH  015%=      5-min Rain = 0
KTAS 090408Z 13006KT 17/M10 A2968 RMK A01 T01711098  RH  015%=      5-min Rain = 0
KTAS 090409Z 13007KT 17/M10 A2968 RMK A01 T01711098  RH  015%=      5-min Rain = 0
KTAS 090410Z 13007KT 17/M10 A2968 RMK A01 T01711097  RH  015%=      5-min Rain = 0
KTAS 090411Z 13007KT 17/M10 A2968 RMK A01 T01701096  RH  015%=      5-min Rain = 0
KTAS 090412Z 13008KT 17/M10 A2968 RMK A01 T01691095  RH  015%=      5-min Rain = 0
KTAS 090413Z 13009KT 17/M09 A2968 RMK A01 T01691094  RH  016%=      5-min Rain = 0
KTAS 090414Z 14009KT 17/M10 A2968 RMK A01 T01721095  RH  015%=      5-min Rain = 0
KTAS 090415Z 14009KT 17/M10 A2968 RMK A01 T01741095  RH  015%=      5-min Rain = 0
KTAS 090416Z 14008KT 18/M10 A2968 RMK A01 T01751095  RH  015%=      5-min Rain = 0
KTAS 090417Z 14008KT 18/M10 A2968 RMK A01 T01751096  RH  015%=      5-min Rain = 0
KTAS 090418Z 14008KT 18/M10 A2968 RMK A01 T01771097  RH  014%=      5-min Rain = 0
KTAS 090419Z 14009KT 18/M10 A2968 RMK A01 T01771097  RH  014%=      5-min Rain = 0
KTAS 090420Z 15008KT 18/M10 A2968 RMK A01 T01761098  RH  014%=      5-min Rain = 0
KTAS 090421Z 15008KT 18/M10 A2968 RMK A01 T01761098  RH  014%=      5-min Rain = 0
KTAS 090422Z 14008KT 18/M10 A2968 RMK A01 T01771099  RH  014%=      5-min Rain = 0
KTAS 090423Z 16009KT 18/M10 A2968 RMK A01 T01781099  RH  014%=      5-min Rain = 0
KTAS 090424Z 16009KT 18/M10 A2968 RMK A01 T01781098  RH  014%=      5-min Rain = 0
KTAS 090425Z 16008KT 18/M10 A2968 RMK A01 T01771098  RH  014%=      5-min Rain = 0
KTAS 090426Z 16008KT 17/M10 A2968 RMK A01 T01741095  RH  015%=      5-min Rain = 0
KTAS 090427Z 16010KT 17/M09 A2968 RMK A01 T01701093  RH  016%=      5-min Rain = 0
KTAS 090428Z 16011KT 17/M09 A2968 RMK A01 T01691089  RH  016%=      5-min Rain = 0
KTAS 090429Z 16012KT 17/M09 A2968 RMK A01 T01721088  RH  016%=      5-min Rain = 0
KTAS 090430Z 16011KT 18/M09 A2968 RMK A01 T01751086  RH  016%=      5-min Rain = 0
KTAS 090431Z 16011KT 18/M09 A2968 RMK A01 T01761085  RH  016%=      5-min Rain = 0
KTAS 090432Z 16011KT 18/M09 A2968 RMK A01 T01771085  RH  016%=      5-min Rain = 0
KTAS 090433Z 16011KT 18/M09 A2967 RMK A01 T01791087  RH  015%=      5-min Rain = 0
KTAS 090434Z 16011KT 18/M09 A2967 RMK A01 T01821089  RH  015%=      5-min Rain = 0
KTAS 090435Z 15011KT 18/M09 A2967 RMK A01 T01841090  RH  015%=      5-min Rain = 0
KTAS 090436Z 15011KT 18/M09 A2967 RMK A01 T01841088  RH  015%=      5-min Rain = 0
KTAS 090437Z 15011KT 19/M09 A2967 RMK A01 T01851091  RH  015%=      5-min Rain = 0
KTAS 090438Z 15011KT 19/M09 A2967 RMK A01 T01851090  RH  015%=      5-min Rain = 0
KTAS 090439Z 16011KT 19/M09 A2967 RMK A01 T01861089  RH  015%=      5-min Rain = 0
KTAS 090440Z 16011KT 19/M09 A2967 RMK A01 T01851088  RH  015%=      5-min Rain = 0
KTAS 090441Z 16011KT 18/M09 A2967 RMK A01 T01841088  RH  015%=      5-min Rain = 0
KTAS 090442Z 16010KT 18/M09 A2967 RMK A01 T01831086  RH  015%=      5-min Rain = 0
KTAS 090443Z 16010KT 18/M09 A2967 RMK A01 T01821085  RH  016%=      5-min Rain = 0
KTAS 090444Z 16010KT 18/M09 A2967 RMK A01 T01801085  RH  016%=      5-min Rain = 0
KTAS 090445Z 16010KT 18/M09 A2967 RMK A01 T01791087  RH  016%=      5-min Rain = 0
KTAS 090446Z 16010KT 18/M09 A2967 RMK A01 T01791087  RH  016%=      5-min Rain = 0
KTAS 090447Z 16010KT 18/M09 A2967 RMK A01 T01781088  RH  015%=      5-min Rain = 0
KTAS 090448Z 16009KT 18/M09 A2967 RMK A01 T01771088  RH  016%=      5-min Rain = 0
KTAS 090449Z 16009KT 18/M09 A2967 RMK A01 T01771088  RH  016%=      5-min Rain = 0
KTAS 090450Z 16009KT 18/M09 A2967 RMK A01 T01771089  RH  016%=      5-min Rain = 0
KTAS 090451Z 16009KT 18/M09 A2967 RMK A01 T01771089  RH  015%=      5-min Rain = 0
KTAS 090452Z 16009KT 18/M09 A2967 RMK A01 T01771089  RH  015%=      5-min Rain = 0
KTAS 090453Z 16009KT 18/M09 A2967 RMK A01 T01771089  RH  015%=      5-min Rain = 0
KTAS 090454Z 16009KT 18/M09 A2967 RMK A01 T01771089  RH  015%=      5-min Rain = 0
KTAS 090455Z 16009KT 18/M09 A2967 RMK A01 T01781091  RH  015%=      5-min Rain = 0
KTAS 090456Z 16009KT 18/M09 A2967 RMK A01 T01791093  RH  015%=      5-min Rain = 0
KTAS 090457Z 16009KT 18/M09 A2967 RMK A01 T01821094  RH  014%=      5-min Rain = 0
KTAS 090458Z 16009KT 18/M09 A2967 RMK A01 T01841094  RH  014%=      5-min Rain = 0
KTAS 090459Z 17009KT 19/M10 A2967 RMK A01 T01851095  RH  014%=      5-min Rain = 0

Page generated in 0.1893 seconds.